Observation data for Odell on 01/17/2019      Previous  Date  Next       Current Mesonet Observations  Soil Data  Daily Summary Page  Observations in Plain Language
KOD1 170600Z 24010KT 10/04 A2996 RMK A01 T00960042  RH  069%=      5-min Rain = 0
KOD1 170601Z 24010KT 10/04 A2996 RMK A01 T00950041  RH  069%=      5-min Rain = 0
KOD1 170602Z 24009KT 10/04 A2996 RMK A01 T00950041  RH  069%=      5-min Rain = 0
KOD1 170603Z 24009KT 09/04 A2996 RMK A01 T00940041  RH  069%=      5-min Rain = 0
KOD1 170604Z 24009KT 09/04 A2996 RMK A01 T00930040  RH  070%=      5-min Rain = 0
KOD1 170605Z 24009KT 09/04 A2996 RMK A01 T00920040  RH  070%=      5-min Rain = 0
KOD1 170606Z 25009KT 09/04 A2996 RMK A01 T00910040  RH  070%=      5-min Rain = 0
KOD1 170607Z 25009KT 09/04 A2996 RMK A01 T00900039  RH  070%=      5-min Rain = 0
KOD1 170608Z 25009KT 09/04 A2996 RMK A01 T00900039  RH  071%=      5-min Rain = 0
KOD1 170609Z 25008KT 09/04 A2996 RMK A01 T00890039  RH  071%=      5-min Rain = 0
KOD1 170610Z 25008KT 09/04 A2997 RMK A01 T00880039  RH  071%=      5-min Rain = 0
KOD1 170611Z 25008KT 09/04 A2997 RMK A01 T00870038  RH  071%=      5-min Rain = 0
KOD1 170612Z 25008KT 09/04 A2997 RMK A01 T00870038  RH  071%=      5-min Rain = 0
KOD1 170613Z 25008KT 09/04 A2996 RMK A01 T00860037  RH  071%=      5-min Rain = 0
KOD1 170614Z 25008KT 09/04 A2997 RMK A01 T00850037  RH  071%=      5-min Rain = 0
KOD1 170615Z 25007KT 09/04 A2997 RMK A01 T00850036  RH  072%=      5-min Rain = 0
KOD1 170616Z 25008KT 08/04 A2997 RMK A01 T00840036  RH  072%=      5-min Rain = 0
KOD1 170617Z 25008KT 08/04 A2997 RMK A01 T00840036  RH  072%=      5-min Rain = 0
KOD1 170618Z 25008KT 08/04 A2997 RMK A01 T00830035  RH  072%=      5-min Rain = 0
KOD1 170619Z 25008KT 08/04 A2997 RMK A01 T00820035  RH  072%=      5-min Rain = 0
KOD1 170620Z 25008KT 08/04 A2997 RMK A01 T00810035  RH  072%=      5-min Rain = 0
KOD1 170621Z 25008KT 08/03 A2997 RMK A01 T00810034  RH  072%=      5-min Rain = 0
KOD1 170622Z 25009KT 08/03 A2997 RMK A01 T00810034  RH  073%=      5-min Rain = 0
KOD1 170623Z 25009KT 08/03 A2997 RMK A01 T00800034  RH  073%=      5-min Rain = 0
KOD1 170624Z 25009KT 08/03 A2997 RMK A01 T00790034  RH  073%=      5-min Rain = 0
KOD1 170625Z 24009KT 08/03 A2997 RMK A01 T00790034  RH  073%=      5-min Rain = 0
KOD1 170626Z 25009KT 08/03 A2997 RMK A01 T00790033  RH  073%=      5-min Rain = 0
KOD1 170627Z 24009KT 08/03 A2997 RMK A01 T00780033  RH  073%=      5-min Rain = 0
KOD1 170628Z 24009KT 08/03 A2997 RMK A01 T00780033  RH  073%=      5-min Rain = 0
KOD1 170629Z 24009KT 08/03 A2997 RMK A01 T00780034  RH  073%=      5-min Rain = 0
KOD1 170630Z 25009KT 08/03 A2997 RMK A01 T00790034  RH  073%=      5-min Rain = 0
KOD1 170631Z 25009KT 08/03 A2997 RMK A01 T00790034  RH  073%=      5-min Rain = 0
KOD1 170632Z 25009KT 08/03 A2997 RMK A01 T00790034  RH  073%=      5-min Rain = 0
KOD1 170633Z 25009KT 08/03 A2997 RMK A01 T00790034  RH  073%=      5-min Rain = 0
KOD1 170634Z 25009KT 08/03 A2997 RMK A01 T00790034  RH  073%=      5-min Rain = 0
KOD1 170635Z 24009KT 08/03 A2997 RMK A01 T00790034  RH  073%=      5-min Rain = 0
KOD1 170636Z 25009KT 08/03 A2997 RMK A01 T00800034  RH  073%=      5-min Rain = 0
KOD1 170637Z 24008KT 08/03 A2997 RMK A01 T00790033  RH  073%=      5-min Rain = 0
KOD1 170638Z 25008KT 08/03 A2997 RMK A01 T00790033  RH  073%=      5-min Rain = 0
KOD1 170639Z 25008KT 08/03 A2997 RMK A01 T00790033  RH  073%=      5-min Rain = 0
KOD1 170640Z 25008KT 08/03 A2997 RMK A01 T00790033  RH  073%=      5-min Rain = 0
KOD1 170641Z 25008KT 08/03 A2997 RMK A01 T00790033  RH  072%=      5-min Rain = 0
KOD1 170642Z 25008KT 08/03 A2997 RMK A01 T00790032  RH  072%=      5-min Rain = 0
KOD1 170643Z 25009KT 08/03 A2997 RMK A01 T00790032  RH  072%=      5-min Rain = 0
KOD1 170644Z 26009KT 08/03 A2997 RMK A01 T00800031  RH  071%=      5-min Rain = 0
KOD1 170645Z 26008KT 08/03 A2997 RMK A01 T00810030  RH  070%=      5-min Rain = 0
KOD1 170646Z 26008KT 08/03 A2997 RMK A01 T00840029  RH  068%=      5-min Rain = 0
KOD1 170647Z 27008KT 09/03 A2997 RMK A01 T00870029  RH  067%=      5-min Rain = 0
KOD1 170648Z 27008KT 09/03 A2998 RMK A01 T00880029  RH  067%=      5-min Rain = 0
KOD1 170649Z 27008KT 09/03 A2998 RMK A01 T00890029  RH  066%=      5-min Rain = 0
KOD1 170650Z 27008KT 09/03 A2998 RMK A01 T00900028  RH  065%=      5-min Rain = 0
KOD1 170651Z 28008KT 09/03 A2998 RMK A01 T00900028  RH  065%=      5-min Rain = 0
KOD1 170652Z 29009KT 09/03 A2998 RMK A01 T00900028  RH  065%=      5-min Rain = 0
KOD1 170653Z 29009KT 09/03 A2998 RMK A01 T00910027  RH  064%=      5-min Rain = 0
KOD1 170654Z 29010KT 09/03 A2998 RMK A01 T00920027  RH  064%=      5-min Rain = 0
KOD1 170655Z 29011KT 09/03 A2998 RMK A01 T00940026  RH  063%=      5-min Rain = 0
KOD1 170656Z 29010KT 10/03 A2998 RMK A01 T00970026  RH  061%=      5-min Rain = 0
KOD1 170657Z 29010KT 10/03 A2998 RMK A01 T00990027  RH  061%=      5-min Rain = 0
KOD1 170658Z 29011KT 10/03 A2998 RMK A01 T01000027  RH  061%=      5-min Rain = 0
KOD1 170659Z 30012KT 10/03 A2998 RMK A01 T01010026  RH  060%=      5-min Rain = 0
KOD1 170700Z 30012KT 10/03 A2998 RMK A01 T01040026  RH  058%=      5-min Rain = 0
KOD1 170701Z 30011KT 11/03 A2998 RMK A01 T01060026  RH  058%=      5-min Rain = 0
KOD1 170702Z 31015KT 11/03 A2998 RMK A01 T01080025  RH  057%=      5-min Rain = 0
KOD1 170703Z 31014KT 11/03 A2998 RMK A01 T01090026  RH  056%=      5-min Rain = 0
KOD1 170704Z 31014KT 11/03 A2998 RMK A01 T01100026  RH  056%=      5-min Rain = 0
KOD1 170705Z 31014KT 11/03 A2998 RMK A01 T01100026  RH  056%=      5-min Rain = 0
KOD1 170706Z 31017KT 11/03 A2998 RMK A01 T01090027  RH  057%=      5-min Rain = 0
KOD1 170707Z 31018KT 11/03 A2998 RMK A01 T01080028  RH  058%=      5-min Rain = 0
KOD1 170708Z 31020KT 11/03 A2998 RMK A01 T01070028  RH  058%=      5-min Rain = 0
KOD1 170709Z 32017KT 11/03 A2998 RMK A01 T01050028  RH  059%=      5-min Rain = 0
KOD1 170710Z 32015G20KT 10/03 A2999 RMK A01 T01040029  RH  060%=      5-min Rain = 0
KOD1 170711Z 32020G25KT 10/03 A2998 RMK A01 T01010030  RH  061%=      5-min Rain = 0
KOD1 170712Z 32020KT 10/03 A2999 RMK A01 T00990031  RH  062%=      5-min Rain = 0
KOD1 170713Z 32019G24KT 10/03 A2999 RMK A01 T00970033  RH  064%=      5-min Rain = 0
KOD1 170714Z 33020KT 10/03 A2999 RMK A01 T00950033  RH  065%=      5-min Rain = 0
KOD1 170715Z 32017KT 09/03 A2999 RMK A01 T00930034  RH  067%=      5-min Rain = 0
KOD1 170716Z 32018KT 09/04 A2999 RMK A01 T00900035  RH  068%=      5-min Rain = 0
KOD1 170717Z 32020G25KT 09/04 A2999 RMK A01 T00880036  RH  070%=      5-min Rain = 0
KOD1 170718Z 33017G22KT 09/04 A2999 RMK A01 T00850037  RH  072%=      5-min Rain = 0
KOD1 170719Z 33016KT 08/04 A2999 RMK A01 T00830037  RH  073%=      5-min Rain = 0
KOD1 170720Z 33019KT 08/04 A2999 RMK A01 T00810038  RH  074%=      5-min Rain = 0
KOD1 170721Z 34023KT 08/04 A30 RMK A01 T00780043  RH  078%=      5-min Rain = 0
KOD1 170722Z 34019KT 08/05 A30 RMK A01 T00750048  RH  083%=      5-min Rain = 0
KOD1 170723Z 34019KT 07/05 A30 RMK A01 T00720050  RH  086%=      5-min Rain = 0
KOD1 170724Z 33019KT 07/05 A30 RMK A01 T00700053  RH  089%=      5-min Rain = 0
KOD1 170725Z 34019KT 07/06 A30 RMK A01 T00690055  RH  091%=      5-min Rain = 0
KOD1 170726Z 33017KT 07/06 A30 RMK A01 T00680056  RH  092%=      5-min Rain = 0
KOD1 170727Z 33019KT 07/06 A30 RMK A01 T00670057  RH  093%=      5-min Rain = 0
KOD1 170728Z 34015KT 07/06 A30 RMK A01 T00670057  RH  094%=      5-min Rain = 0
KOD1 170729Z 33017G23KT 07/06 A30 RMK A01 T00670058  RH  094%=      5-min Rain = 0
KOD1 170730Z 33017G22KT 07/06 A30 RMK A01 T00670059  RH  094%=      5-min Rain = 0
KOD1 170731Z 34016KT 07/06 A30 RMK A01 T00670060  RH  095%=      5-min Rain = 0
KOD1 170732Z 34015KT 07/06 A30 RMK A01 T00680060  RH  095%=      5-min Rain = 0
KOD1 170733Z 33014KT 07/06 A30 RMK A01 T00680061  RH  095%=      5-min Rain = 0
KOD1 170734Z 33020KT 07/06 A30 RMK A01 T00680061  RH  095%=      5-min Rain = 0
KOD1 170735Z 34014KT 07/06 A30 RMK A01 T00690062  RH  095%=      5-min Rain = 0
KOD1 170736Z 34015KT 07/06 A30 RMK A01 T00690063  RH  096%=      5-min Rain = 0
KOD1 170737Z 34015KT 07/06 A30 RMK A01 T00700063  RH  096%=      5-min Rain = 0
KOD1 170738Z 34018KT 07/06 A30 RMK A01 T00700064  RH  096%=      5-min Rain = 0
KOD1 170739Z 34016KT 07/07 A30 RMK A01 T00710065  RH  096%=      5-min Rain = 0
KOD1 170740Z 34016KT 07/07 A30 RMK A01 T00720065  RH  096%=      5-min Rain = 0
KOD1 170741Z 34016KT 07/07 A3001 RMK A01 T00720066  RH  096%=      5-min Rain = 0
KOD1 170742Z 34018KT 07/07 A3001 RMK A01 T00730066  RH  096%=      5-min Rain = 0
KOD1 170743Z 34017KT 07/07 A3001 RMK A01 T00730067  RH  096%=      5-min Rain = 0
KOD1 170744Z 34015KT 07/07 A3001 RMK A01 T00740067  RH  095%=      5-min Rain = 0
KOD1 170745Z 34015KT 07/07 A3001 RMK A01 T00740067  RH  095%=      5-min Rain = 0
KOD1 170746Z 34017KT 07/07 A3001 RMK A01 T00740067  RH  095%=      5-min Rain = 0
KOD1 170747Z 34018KT 08/07 A3001 RMK A01 T00750067  RH  095%=      5-min Rain = 0
KOD1 170748Z 34016KT 08/07 A3001 RMK A01 T00750068  RH  095%=      5-min Rain = 0
KOD1 170749Z 34018KT 08/07 A3001 RMK A01 T00750068  RH  095%=      5-min Rain = 0
KOD1 170750Z 34019KT 08/07 A3001 RMK A01 T00750068  RH  095%=      5-min Rain = 0
KOD1 170751Z 34019KT 08/07 A3001 RMK A01 T00760068  RH  095%=      5-min Rain = 0
KOD1 170752Z 34018KT 08/07 A3001 RMK A01 T00760068  RH  095%=      5-min Rain = 0
KOD1 170753Z 34016KT 08/07 A3001 RMK A01 T00760067  RH  094%=      5-min Rain = 0
KOD1 170754Z 34019G24KT 08/07 A3001 RMK A01 T00760067  RH  094%=      5-min Rain = 0
KOD1 170755Z 34017G23KT 08/07 A3001 RMK A01 T00760067  RH  094%=      5-min Rain = 0
KOD1 170756Z 34019KT 08/07 A3001 RMK A01 T00760067  RH  094%=      5-min Rain = 0
KOD1 170757Z 34020KT 08/07 A3002 RMK A01 T00760067  RH  094%=      5-min Rain = 0
KOD1 170758Z 34019KT 08/07 A3002 RMK A01 T00770067  RH  094%=      5-min Rain = 0
KOD1 170759Z 34013KT 08/07 A3002 RMK A01 T00770067  RH  094%=      5-min Rain = 0
KOD1 170800Z 33015G20KT 08/07 A3002 RMK A01 T00770067  RH  094%=      5-min Rain = 0
KOD1 170801Z 33020KT 08/07 A3002 RMK A01 T00770067  RH  094%=      5-min Rain = 0
KOD1 170802Z 33019KT 08/07 A3002 RMK A01 T00770067  RH  093%=      5-min Rain = 0
KOD1 170803Z 33020KT 08/07 A3002 RMK A01 T00780067  RH  093%=      5-min Rain = 0
KOD1 170804Z 33015G20KT 08/07 A3002 RMK A01 T00780068  RH  093%=      5-min Rain = 0
KOD1 170805Z 34019KT 08/07 A3002 RMK A01 T00780068  RH  093%=      5-min Rain = 0
KOD1 170806Z 34020KT 08/07 A3002 RMK A01 T00780068  RH  093%=      5-min Rain = 0
KOD1 170807Z 34021KT 08/07 A3002 RMK A01 T00790068  RH  093%=      5-min Rain = 0
KOD1 170808Z 33018KT 08/07 A3002 RMK A01 T00790068  RH  093%=      5-min Rain = 0
KOD1 170809Z 34016KT 08/07 A3002 RMK A01 T00790068  RH  093%=      5-min Rain = 0
KOD1 170810Z 34018KT 08/07 A3002 RMK A01 T00790068  RH  093%=      5-min Rain = 0
KOD1 170811Z 34018KT 08/07 A3002 RMK A01 T00790068  RH  093%=      5-min Rain = 0
KOD1 170812Z 34018KT 08/07 A3002 RMK A01 T00790068  RH  093%=      5-min Rain = 0
KOD1 170813Z 34018G23KT 08/07 A3002 RMK A01 T00790068  RH  093%=      5-min Rain = 0
KOD1 170814Z 34017KT 08/07 A3002 RMK A01 T00800068  RH  093%=      5-min Rain = 0
KOD1 170815Z 34016KT 08/07 A3002 RMK A01 T00800068  RH  092%=      5-min Rain = 0
KOD1 170816Z 34018KT 08/07 A3002 RMK A01 T00800068  RH  092%=      5-min Rain = 0
KOD1 170817Z 34016KT 08/07 A3002 RMK A01 T00800069  RH  092%=      5-min Rain = 0
KOD1 170818Z 34017KT 08/07 A3002 RMK A01 T00800069  RH  092%=      5-min Rain = 0
KOD1 170819Z 34014G19KT 08/07 A3002 RMK A01 T00810069  RH  092%=      5-min Rain = 0
KOD1 170820Z 34019KT 08/07 A3002 RMK A01 T00800068  RH  092%=      5-min Rain = 0
KOD1 170821Z 34019KT 08/07 A3002 RMK A01 T00810068  RH  092%=      5-min Rain = 0
KOD1 170822Z 33018KT 08/07 A3002 RMK A01 T00810068  RH  092%=      5-min Rain = 0
KOD1 170823Z 34016KT 08/07 A3002 RMK A01 T00810068  RH  092%=      5-min Rain = 0
KOD1 170824Z 34016KT 08/07 A3002 RMK A01 T00810068  RH  092%=      5-min Rain = 0
KOD1 170825Z 34017KT 08/07 A3002 RMK A01 T00810069  RH  092%=      5-min Rain = 0
KOD1 170826Z 34016G21KT 08/07 A3002 RMK A01 T00810069  RH  092%=      5-min Rain = 0
KOD1 170827Z 34018KT 08/07 A3002 RMK A01 T00810069  RH  092%=      5-min Rain = 0
KOD1 170828Z 34017KT 08/07 A3002 RMK A01 T00800069  RH  092%=      5-min Rain = 0
KOD1 170829Z 34017KT 08/07 A3002 RMK A01 T00800069  RH  092%=      5-min Rain = 0
KOD1 170830Z 34019KT 08/07 A3002 RMK A01 T00800068  RH  092%=      5-min Rain = 0
KOD1 170831Z 34017G23KT 08/07 A3002 RMK A01 T00800068  RH  092%=      5-min Rain = 0
KOD1 170832Z 34016G22KT 08/07 A3002 RMK A01 T00800068  RH  092%=      5-min Rain = 0
KOD1 170833Z 34019KT 08/07 A3002 RMK A01 T00800068  RH  092%=      5-min Rain = 0
KOD1 170834Z 34016KT 08/07 A3002 RMK A01 T00800068  RH  092%=      5-min Rain = 0
KOD1 170835Z 34020G25KT 08/07 A3002 RMK A01 T00800068  RH  093%=      5-min Rain = 0
KOD1 170836Z 34017G22KT 08/07 A3002 RMK A01 T00800068  RH  093%=      5-min Rain = 0
KOD1 170837Z 34017G22KT 08/07 A3002 RMK A01 T00790068  RH  093%=      5-min Rain = 0
KOD1 170838Z 34017G23KT 08/07 A3003 RMK A01 T00790068  RH  093%=      5-min Rain = 0
KOD1 170839Z 34017G23KT 08/07 A3003 RMK A01 T00790068  RH  093%=      5-min Rain = 0
KOD1 170840Z 34018KT 08/07 A3003 RMK A01 T00790068  RH  093%=      5-min Rain = 0
KOD1 170841Z 34017KT 08/07 A3002 RMK A01 T00790068  RH  093%=      5-min Rain = 0
KOD1 170842Z 34016KT 08/07 A3003 RMK A01 T00790068  RH  093%=      5-min Rain = 0
KOD1 170843Z 34017KT 08/07 A3003 RMK A01 T00780068  RH  093%=      5-min Rain = 0
KOD1 170844Z 34019KT 08/07 A3003 RMK A01 T00780068  RH  093%=      5-min Rain = 0
KOD1 170845Z 34017KT 08/07 A3003 RMK A01 T00780068  RH  093%=      5-min Rain = 0
KOD1 170846Z 34020KT 08/07 A3003 RMK A01 T00780068  RH  094%=      5-min Rain = 0
KOD1 170847Z 34019KT 08/07 A3003 RMK A01 T00780068  RH  094%=      5-min Rain = 0
KOD1 170848Z 34015G20KT 08/07 A3003 RMK A01 T00780068  RH  094%=      5-min Rain = 0
KOD1 170849Z 34019KT 08/07 A3003 RMK A01 T00780068  RH  094%=      5-min Rain = 0
KOD1 170850Z 34018KT 08/07 A3003 RMK A01 T00780068  RH  094%=      5-min Rain = 0
KOD1 170851Z 34017KT 08/07 A3003 RMK A01 T00780068  RH  093%=      5-min Rain = 0
KOD1 170852Z 34018KT 08/07 A3003 RMK A01 T00780067  RH  093%=      5-min Rain = 0
KOD1 170853Z 34017KT 08/07 A3003 RMK A01 T00780067  RH  093%=      5-min Rain = 0
KOD1 170854Z 34016KT 08/07 A3003 RMK A01 T00780067  RH  093%=      5-min Rain = 0
KOD1 170855Z 34013KT 08/07 A3003 RMK A01 T00780067  RH  093%=      5-min Rain = 0
KOD1 170856Z 33017G23KT 08/07 A3003 RMK A01 T00780067  RH  093%=      5-min Rain = 0
KOD1 170857Z 34019KT 08/07 A3004 RMK A01 T00780067  RH  093%=      5-min Rain = 0
KOD1 170858Z 34015KT 08/07 A3004 RMK A01 T00780067  RH  093%=      5-min Rain = 0
KOD1 170859Z 34014KT 08/07 A3004 RMK A01 T00780067  RH  093%=      5-min Rain = 0
KOD1 170900Z 34013KT 08/07 A3004 RMK A01 T00780067  RH  093%=      5-min Rain = 0
KOD1 170901Z 34016KT 08/07 A3004 RMK A01 T00780067  RH  093%=      5-min Rain = 0
KOD1 170902Z 35018KT 08/07 A3004 RMK A01 T00770066  RH  093%=      5-min Rain = 0
KOD1 170903Z 34016KT 08/07 A3004 RMK A01 T00770066  RH  093%=      5-min Rain = 0
KOD1 170904Z 35014KT 08/07 A3004 RMK A01 T00770066  RH  093%=      5-min Rain = 0
KOD1 170905Z 34016KT 08/07 A3004 RMK A01 T00770066  RH  092%=      5-min Rain = 0
KOD1 170906Z 34014KT 08/07 A3004 RMK A01 T00770066  RH  092%=      5-min Rain = 0
KOD1 170907Z 34014KT 08/07 A3005 RMK A01 T00770066  RH  092%=      5-min Rain = 0
KOD1 170908Z 35014G19KT 08/07 A3005 RMK A01 T00770065  RH  092%=      5-min Rain = 0
KOD1 170909Z 34017KT 08/07 A3005 RMK A01 T00770065  RH  092%=      5-min Rain = 0
KOD1 170910Z 35014KT 08/07 A3005 RMK A01 T00770065  RH  092%=      5-min Rain = 0
KOD1 170911Z 34013KT 08/07 A3005 RMK A01 T00770065  RH  092%=      5-min Rain = 0
KOD1 170912Z 34013G18KT 08/07 A3005 RMK A01 T00770065  RH  092%=      5-min Rain = 0
KOD1 170913Z 34016KT 08/07 A3005 RMK A01 T00770065  RH  092%=      5-min Rain = 0
KOD1 170914Z 34014KT 08/06 A3005 RMK A01 T00770064  RH  092%=      5-min Rain = 0
KOD1 170915Z 34016G21KT 08/06 A3005 RMK A01 T00770064  RH  092%=      5-min Rain = 0
KOD1 170916Z 34018KT 08/06 A3006 RMK A01 T00760063  RH  091%=      5-min Rain = 0
KOD1 170917Z 34015KT 08/06 A3006 RMK A01 T00760063  RH  091%=      5-min Rain = 0
KOD1 170918Z 33016KT 08/06 A3006 RMK A01 T00760063  RH  091%=      5-min Rain = 0
KOD1 170919Z 34015KT 08/06 A3006 RMK A01 T00760063  RH  091%=      5-min Rain = 0
KOD1 170920Z 35011KT 08/06 A3006 RMK A01 T00760063  RH  091%=      5-min Rain = 0
KOD1 170921Z 34011KT 08/06 A3006 RMK A01 T00760063  RH  091%=      5-min Rain = 0
KOD1 170922Z 34014G20KT 08/06 A3006 RMK A01 T00760063  RH  091%=      5-min Rain = 0
KOD1 170923Z 34018KT 08/06 A3006 RMK A01 T00760062  RH  091%=      5-min Rain = 0
KOD1 170924Z 34017KT 08/06 A3006 RMK A01 T00760061  RH  091%=      5-min Rain = 0
KOD1 170925Z 34016KT 08/06 A3006 RMK A01 T00760061  RH  090%=      5-min Rain = 0
KOD1 170926Z 34018KT 08/06 A3006 RMK A01 T00750060  RH  090%=      5-min Rain = 0
KOD1 170927Z 34018KT 08/06 A3006 RMK A01 T00750059  RH  090%=      5-min Rain = 0
KOD1 170928Z 34020KT 08/06 A3006 RMK A01 T00750059  RH  090%=      5-min Rain = 0
KOD1 170929Z 34014KT 08/06 A3007 RMK A01 T00750059  RH  090%=      5-min Rain = 0
KOD1 170930Z 34016G21KT 08/06 A3007 RMK A01 T00750059  RH  090%=      5-min Rain = 0
KOD1 170931Z 34015KT 08/06 A3007 RMK A01 T00750059  RH  090%=      5-min Rain = 0
KOD1 170932Z 35019KT 08/06 A3006 RMK A01 T00750059  RH  090%=      5-min Rain = 0
KOD1 170933Z 35018KT 08/06 A3007 RMK A01 T00750059  RH  090%=      5-min Rain = 0
KOD1 170934Z 34020KT 08/06 A3007 RMK A01 T00750058  RH  090%=      5-min Rain = 0
KOD1 170935Z 34018KT 07/06 A3007 RMK A01 T00740059  RH  090%=      5-min Rain = 0
KOD1 170936Z 35017KT 07/06 A3007 RMK A01 T00740059  RH  090%=      5-min Rain = 0
KOD1 170937Z 35015KT 07/06 A3007 RMK A01 T00740059  RH  090%=      5-min Rain = 0
KOD1 170938Z 35013KT 07/06 A3007 RMK A01 T00740059  RH  090%=      5-min Rain = 0
KOD1 170939Z 35014KT 07/06 A3007 RMK A01 T00740059  RH  090%=      5-min Rain = 0
KOD1 170940Z 34015KT 07/06 A3007 RMK A01 T00740059  RH  091%=      5-min Rain = 0
KOD1 170941Z 34013KT 07/06 A3007 RMK A01 T00740059  RH  091%=      5-min Rain = 0
KOD1 170942Z 34014KT 07/06 A3007 RMK A01 T00740059  RH  091%=      5-min Rain = 0
KOD1 170943Z 35013KT 07/06 A3007 RMK A01 T00740060  RH  091%=      5-min Rain = 0
KOD1 170944Z 35012KT 07/06 A3007 RMK A01 T00740060  RH  091%=      5-min Rain = 0
KOD1 170945Z 35013KT 07/06 A3007 RMK A01 T00740060  RH  091%=      5-min Rain = 0
KOD1 170946Z 35015KT 07/06 A3007 RMK A01 T00730059  RH  091%=      5-min Rain = 0
KOD1 170947Z 34012KT 07/06 A3007 RMK A01 T00730059  RH  091%=      5-min Rain = 0
KOD1 170948Z 35012KT 07/06 A3007 RMK A01 T00730059  RH  091%=      5-min Rain = 0
KOD1 170949Z 35013KT 07/06 A3007 RMK A01 T00730059  RH  091%=      5-min Rain = 0
KOD1 170950Z 35014G19KT 07/06 A3007 RMK A01 T00730059  RH  091%=      5-min Rain = 0
KOD1 170951Z 34014KT 07/06 A3007 RMK A01 T00730058  RH  090%=      5-min Rain = 0
KOD1 170952Z 34013KT 07/06 A3007 RMK A01 T00730058  RH  090%=      5-min Rain = 0
KOD1 170953Z 35013KT 07/06 A3007 RMK A01 T00730058  RH  090%=      5-min Rain = 0
KOD1 170954Z 35013KT 07/06 A3008 RMK A01 T00730058  RH  090%=      5-min Rain = 0
KOD1 170955Z 35012KT 07/06 A3008 RMK A01 T00730057  RH  090%=      5-min Rain = 0
KOD1 170956Z 34011KT 07/06 A3008 RMK A01 T00720057  RH  090%=      5-min Rain = 0
KOD1 170957Z 34015KT 07/06 A3008 RMK A01 T00720056  RH  090%=      5-min Rain = 0
KOD1 170958Z 34013KT 07/06 A3008 RMK A01 T00720056  RH  089%=      5-min Rain = 0
KOD1 170959Z 34012G17KT 07/06 A3008 RMK A01 T00720055  RH  089%=      5-min Rain = 0
KOD1 171000Z 33012KT 07/06 A3008 RMK A01 T00720055  RH  089%=      5-min Rain = 0
KOD1 171001Z 33013KT 07/05 A3008 RMK A01 T00720054  RH  089%=      5-min Rain = 0
KOD1 171002Z 33015KT 07/05 A3008 RMK A01 T00710054  RH  089%=      5-min Rain = 0
KOD1 171003Z 34016KT 07/05 A3008 RMK A01 T00710053  RH  088%=      5-min Rain = 0
KOD1 171004Z 34016KT 07/05 A3009 RMK A01 T00710053  RH  088%=      5-min Rain = 0
KOD1 171005Z 35015KT 07/05 A3009 RMK A01 T00710053  RH  088%=      5-min Rain = 0
KOD1 171006Z 35014KT 07/05 A3009 RMK A01 T00710052  RH  088%=      5-min Rain = 0
KOD1 171007Z 35014KT 07/05 A3009 RMK A01 T00710052  RH  088%=      5-min Rain = 0
KOD1 171008Z 35014KT 07/05 A3009 RMK A01 T00710052  RH  088%=      5-min Rain = 0
KOD1 171009Z 36014KT 07/05 A3009 RMK A01 T00710052  RH  088%=      5-min Rain = 0
KOD1 171010Z 35013KT 07/05 A3009 RMK A01 T00700052  RH  088%=      5-min Rain = 0
KOD1 171011Z 35012KT 07/05 A3009 RMK A01 T00700052  RH  088%=      5-min Rain = 0
KOD1 171012Z 34012KT 07/05 A3009 RMK A01 T00700052  RH  088%=      5-min Rain = 0
KOD1 171013Z 34011KT 07/05 A3009 RMK A01 T00700052  RH  088%=      5-min Rain = 0
KOD1 171014Z 34009KT 07/05 A3009 RMK A01 T00700052  RH  088%=      5-min Rain = 0
KOD1 171015Z 35011KT 07/05 A3009 RMK A01 T00700052  RH  088%=      5-min Rain = 0
KOD1 171016Z 34010KT 07/05 A3009 RMK A01 T00700052  RH  088%=      5-min Rain = 0
KOD1 171017Z 34009KT 07/05 A3009 RMK A01 T00700052  RH  088%=      5-min Rain = 0
KOD1 171018Z 34011KT 07/05 A3009 RMK A01 T00700052  RH  088%=      5-min Rain = 0
KOD1 171019Z 33010KT 07/05 A3009 RMK A01 T00700052  RH  088%=      5-min Rain = 0
KOD1 171020Z 33009KT 07/05 A3009 RMK A01 T00700052  RH  088%=      5-min Rain = 0
KOD1 171021Z 33010KT 07/05 A3009 RMK A01 T00700051  RH  088%=      5-min Rain = 0
KOD1 171022Z 33010KT 07/05 A3009 RMK A01 T00690051  RH  088%=      5-min Rain = 0
KOD1 171023Z 33011KT 07/05 A3009 RMK A01 T00690051  RH  088%=      5-min Rain = 0
KOD1 171024Z 33014KT 07/05 A3009 RMK A01 T00690050  RH  088%=      5-min Rain = 0
KOD1 171025Z 33010KT 07/05 A3009 RMK A01 T00690050  RH  088%=      5-min Rain = 0
KOD1 171026Z 33012G19KT 07/05 A3009 RMK A01 T00690050  RH  088%=      5-min Rain = 0
KOD1 171027Z 33016KT 07/05 A3009 RMK A01 T00680049  RH  088%=      5-min Rain = 0
KOD1 171028Z 33014KT 07/05 A3009 RMK A01 T00680049  RH  088%=      5-min Rain = 0
KOD1 171029Z 33012KT 07/05 A3009 RMK A01 T00680049  RH  088%=      5-min Rain = 0
KOD1 171030Z 33014KT 07/05 A3009 RMK A01 T00680049  RH  088%=      5-min Rain = 0
KOD1 171031Z 33014KT 07/05 A3009 RMK A01 T00680049  RH  088%=      5-min Rain = 0
KOD1 171032Z 33014KT 07/05 A3009 RMK A01 T00680049  RH  088%=      5-min Rain = 0
KOD1 171033Z 33015KT 07/05 A3009 RMK A01 T00670048  RH  088%=      5-min Rain = 0
KOD1 171034Z 34016KT 07/05 A3009 RMK A01 T00670048  RH  087%=      5-min Rain = 0
KOD1 171035Z 34014KT 07/05 A3009 RMK A01 T00670048  RH  087%=      5-min Rain = 0
KOD1 171036Z 35014KT 07/05 A3009 RMK A01 T00670048  RH  088%=      5-min Rain = 0
KOD1 171037Z 34014KT 07/05 A3009 RMK A01 T00670048  RH  087%=      5-min Rain = 0
KOD1 171038Z 34014KT 07/05 A3009 RMK A01 T00670048  RH  087%=      5-min Rain = 0
KOD1 171039Z 34013KT 07/05 A3009 RMK A01 T00670048  RH  088%=      5-min Rain = 0
KOD1 171040Z 34011KT 07/05 A3009 RMK A01 T00670048  RH  088%=      5-min Rain = 0
KOD1 171041Z 34013KT 07/05 A3009 RMK A01 T00670048  RH  087%=      5-min Rain = 0
KOD1 171042Z 34011KT 07/05 A3009 RMK A01 T00670047  RH  087%=      5-min Rain = 0
KOD1 171043Z 34013KT 07/05 A3009 RMK A01 T00670047  RH  087%=      5-min Rain = 0
KOD1 171044Z 34012KT 07/05 A3009 RMK A01 T00670047  RH  087%=      5-min Rain = 0
KOD1 171045Z 34010KT 07/05 A3009 RMK A01 T00670047  RH  087%=      5-min Rain = 0
KOD1 171046Z 34010KT 07/05 A3009 RMK A01 T00670047  RH  087%=      5-min Rain = 0
KOD1 171047Z 34013KT 07/05 A3009 RMK A01 T00660047  RH  087%=      5-min Rain = 0
KOD1 171048Z 34013KT 07/05 A3009 RMK A01 T00660046  RH  087%=      5-min Rain = 0
KOD1 171049Z 34011KT 07/05 A3009 RMK A01 T00660046  RH  087%=      5-min Rain = 0
KOD1 171050Z 34014KT 07/05 A3009 RMK A01 T00660046  RH  087%=      5-min Rain = 0
KOD1 171051Z 34012KT 07/05 A301 RMK A01 T00660046  RH  087%=      5-min Rain = 0
KOD1 171052Z 34010KT 07/05 A301 RMK A01 T00660046  RH  087%=      5-min Rain = 0
KOD1 171053Z 34012KT 07/05 A301 RMK A01 T00650045  RH  087%=      5-min Rain = 0
KOD1 171054Z 34012KT 07/05 A301 RMK A01 T00650045  RH  087%=      5-min Rain = 0
KOD1 171055Z 35015KT 07/05 A301 RMK A01 T00650045  RH  087%=      5-min Rain = 0
KOD1 171056Z 35014KT 07/04 A301 RMK A01 T00650044  RH  087%=      5-min Rain = 0
KOD1 171057Z 34013KT 06/04 A301 RMK A01 T00640044  RH  087%=      5-min Rain = 0
KOD1 171058Z 34013KT 06/04 A301 RMK A01 T00640044  RH  087%=      5-min Rain = 0
KOD1 171059Z 35012KT 06/04 A301 RMK A01 T00640044  RH  087%=      5-min Rain = 0
KOD1 171100Z 35014KT 06/04 A301 RMK A01 T00640044  RH  087%=      5-min Rain = 0
KOD1 171101Z 35012KT 06/04 A301 RMK A01 T00640044  RH  087%=      5-min Rain = 0
KOD1 171102Z 34011KT 06/04 A301 RMK A01 T00640044  RH  087%=      5-min Rain = 0
KOD1 171103Z 34012KT 06/04 A301 RMK A01 T00640044  RH  087%=      5-min Rain = 0
KOD1 171104Z 34011KT 06/04 A301 RMK A01 T00640044  RH  087%=      5-min Rain = 0
KOD1 171105Z 35012KT 06/04 A301 RMK A01 T00640044  RH  087%=      5-min Rain = 0
KOD1 171106Z 35012KT 06/04 A301 RMK A01 T00640044  RH  087%=      5-min Rain = 0
KOD1 171107Z 34010KT 06/05 A301 RMK A01 T00640045  RH  087%=      5-min Rain = 0
KOD1 171108Z 35013KT 06/05 A3009 RMK A01 T00640045  RH  087%=      5-min Rain = 0
KOD1 171109Z 35013KT 06/04 A3009 RMK A01 T00640044  RH  087%=      5-min Rain = 0
KOD1 171110Z 34011KT 06/04 A3009 RMK A01 T00640044  RH  087%=      5-min Rain = 0
KOD1 171111Z 34011KT 06/05 A301 RMK A01 T00640045  RH  087%=      5-min Rain = 0
KOD1 171112Z 34011G16KT 06/05 A3009 RMK A01 T00640045  RH  087%=      5-min Rain = 0
KOD1 171113Z 34013KT 06/04 A3009 RMK A01 T00640044  RH  087%=      5-min Rain = 0
KOD1 171114Z 34015KT 06/04 A3009 RMK A01 T00640044  RH  087%=      5-min Rain = 0
KOD1 171115Z 34014KT 06/04 A3009 RMK A01 T00640044  RH  087%=      5-min Rain = 0
KOD1 171116Z 34013KT 06/04 A301 RMK A01 T00640043  RH  087%=      5-min Rain = 0
KOD1 171117Z 33011KT 06/04 A301 RMK A01 T00640044  RH  087%=      5-min Rain = 0
KOD1 171118Z 33013KT 06/04 A301 RMK A01 T00640044  RH  087%=      5-min Rain = 0
KOD1 171119Z 33015KT 06/04 A301 RMK A01 T00640043  RH  087%=      5-min Rain = 0
KOD1 171120Z 34014KT 06/04 A301 RMK A01 T00640043  RH  087%=      5-min Rain = 0
KOD1 171121Z 34011KT 06/04 A3009 RMK A01 T00640043  RH  087%=      5-min Rain = 0
KOD1 171122Z 34012KT 06/04 A3009 RMK A01 T00630043  RH  087%=      5-min Rain = 0
KOD1 171123Z 34011KT 06/04 A3009 RMK A01 T00630043  RH  087%=      5-min Rain = 0
KOD1 171124Z 33013KT 06/04 A3009 RMK A01 T00630043  RH  087%=      5-min Rain = 0
KOD1 171125Z 33013KT 06/04 A3009 RMK A01 T00630043  RH  087%=      5-min Rain = 0
KOD1 171126Z 34013KT 06/04 A3009 RMK A01 T00630043  RH  087%=      5-min Rain = 0
KOD1 171127Z 34012KT 06/04 A3009 RMK A01 T00630043  RH  087%=      5-min Rain = 0
KOD1 171128Z 33010KT 06/04 A3009 RMK A01 T00630043  RH  087%=      5-min Rain = 0
KOD1 171129Z 33013KT 06/04 A3009 RMK A01 T00630043  RH  087%=      5-min Rain = 0
KOD1 171130Z 33015KT 06/04 A3009 RMK A01 T00630042  RH  087%=      5-min Rain = 0
KOD1 171131Z 33014KT 06/04 A3009 RMK A01 T00620041  RH  086%=      5-min Rain = 0
KOD1 171132Z 34015KT 06/04 A3009 RMK A01 T00620041  RH  086%=      5-min Rain = 0
KOD1 171133Z 34014KT 06/04 A3009 RMK A01 T00620040  RH  086%=      5-min Rain = 0
KOD1 171134Z 34014KT 06/04 A3009 RMK A01 T00620040  RH  086%=      5-min Rain = 0
KOD1 171135Z 33012KT 06/04 A3009 RMK A01 T00620040  RH  086%=      5-min Rain = 0
KOD1 171136Z 33015KT 06/04 A301 RMK A01 T00620040  RH  086%=      5-min Rain = 0
KOD1 171137Z 33012KT 06/04 A301 RMK A01 T00620040  RH  086%=      5-min Rain = 0
KOD1 171138Z 33012KT 06/04 A301 RMK A01 T00620041  RH  086%=      5-min Rain = 0
KOD1 171139Z 34009KT 06/04 A301 RMK A01 T00620041  RH  086%=      5-min Rain = 0
KOD1 171140Z 35010KT 06/04 A301 RMK A01 T00620041  RH  087%=      5-min Rain = 0
KOD1 171141Z 35008KT 06/04 A301 RMK A01 T00620041  RH  087%=      5-min Rain = 0
KOD1 171142Z 35008KT 06/04 A301 RMK A01 T00620041  RH  087%=      5-min Rain = 0
KOD1 171143Z 34007G12KT 06/04 A301 RMK A01 T00610041  RH  087%=      5-min Rain = 0
KOD1 171144Z 35011KT 06/04 A301 RMK A01 T00610040  RH  087%=      5-min Rain = 0
KOD1 171145Z 36012KT 06/04 A3011 RMK A01 T00600039  RH  086%=      5-min Rain = 0
KOD1 171146Z 35009KT 06/04 A3011 RMK A01 T00600039  RH  086%=      5-min Rain = 0
KOD1 171147Z 35013KT 06/04 A3011 RMK A01 T00590038  RH  086%=      5-min Rain = 0
KOD1 171148Z 35011KT 06/04 A3011 RMK A01 T00590037  RH  086%=      5-min Rain = 0
KOD1 171149Z 35012KT 06/04 A3011 RMK A01 T00580037  RH  086%=      5-min Rain = 0
KOD1 171150Z 36010KT 06/04 A3011 RMK A01 T00580037  RH  086%=      5-min Rain = 0
KOD1 171151Z 35010KT 06/04 A3011 RMK A01 T00570037  RH  087%=      5-min Rain = 0
KOD1 171152Z 35011KT 06/04 A3011 RMK A01 T00570037  RH  087%=      5-min Rain = 0
KOD1 171153Z 35011KT 06/04 A3011 RMK A01 T00570036  RH  087%=      5-min Rain = 0
KOD1 171154Z 36010KT 06/04 A3011 RMK A01 T00570036  RH  087%=      5-min Rain = 0
KOD1 171155Z 35012KT 06/04 A3011 RMK A01 T00560036  RH  087%=      5-min Rain = 0
KOD1 171156Z 35013KT 06/04 A3011 RMK A01 T00560035  RH  087%=      5-min Rain = 0
KOD1 171157Z 35012KT 06/04 A3011 RMK A01 T00560035  RH  087%=      5-min Rain = 0
KOD1 171158Z 36014KT 06/03 A3011 RMK A01 T00550034  RH  086%=      5-min Rain = 0
KOD1 171159Z 35013KT 06/03 A3011 RMK A01 T00550034  RH  086%=      5-min Rain = 0
KOD1 171200Z 36012KT 06/03 A3011 RMK A01 T00550034  RH  086%=      5-min Rain = 0
KOD1 171201Z 00013KT 06/03 A3011 RMK A01 T00550034  RH  086%=      5-min Rain = 0
KOD1 171202Z 36014KT 05/03 A3011 RMK A01 T00540033  RH  086%=      5-min Rain = 0
KOD1 171203Z 36014KT 05/03 A3011 RMK A01 T00540033  RH  086%=      5-min Rain = 0
KOD1 171204Z 35013KT 05/03 A3011 RMK A01 T00540033  RH  086%=      5-min Rain = 0
KOD1 171205Z 35013KT 05/03 A3011 RMK A01 T00540032  RH  086%=      5-min Rain = 0
KOD1 171206Z 35012KT 05/03 A3011 RMK A01 T00530033  RH  086%=      5-min Rain = 0
KOD1 171207Z 34014KT 05/03 A3011 RMK A01 T00530032  RH  086%=      5-min Rain = 0
KOD1 171208Z 35014KT 05/03 A3011 RMK A01 T00530032  RH  086%=      5-min Rain = 0
KOD1 171209Z 35012KT 05/03 A3011 RMK A01 T00530032  RH  086%=      5-min Rain = 0
KOD1 171210Z 36013KT 05/03 A3011 RMK A01 T00530032  RH  086%=      5-min Rain = 0
KOD1 171211Z 35012KT 05/03 A3011 RMK A01 T00520032  RH  086%=      5-min Rain = 0
KOD1 171212Z 35013KT 05/03 A3011 RMK A01 T00520031  RH  086%=      5-min Rain = 0
KOD1 171213Z 35013KT 05/03 A3011 RMK A01 T00520031  RH  086%=      5-min Rain = 0
KOD1 171214Z 35013KT 05/03 A3011 RMK A01 T00520031  RH  086%=      5-min Rain = 0
KOD1 171215Z 35013KT 05/03 A3011 RMK A01 T00520031  RH  086%=      5-min Rain = 0
KOD1 171216Z 35011KT 05/03 A3011 RMK A01 T00520031  RH  086%=      5-min Rain = 0
KOD1 171217Z 34012KT 05/03 A3011 RMK A01 T00520031  RH  086%=      5-min Rain = 0
KOD1 171218Z 35011KT 05/03 A3011 RMK A01 T00520031  RH  086%=      5-min Rain = 0
KOD1 171219Z 35014KT 05/03 A3011 RMK A01 T00510029  RH  086%=      5-min Rain = 0
KOD1 171220Z 35014KT 05/03 A3011 RMK A01 T00510029  RH  086%=      5-min Rain = 0
KOD1 171221Z 35014KT 05/03 A3011 RMK A01 T00510029  RH  086%=      5-min Rain = 0
KOD1 171222Z 35013KT 05/03 A3011 RMK A01 T00510029  RH  086%=      5-min Rain = 0
KOD1 171223Z 34012KT 05/03 A3011 RMK A01 T00500028  RH  086%=      5-min Rain = 0
KOD1 171224Z 35014KT 05/03 A3011 RMK A01 T00500028  RH  086%=      5-min Rain = 0
KOD1 171225Z 35012KT 05/03 A3012 RMK A01 T00500028  RH  086%=      5-min Rain = 0
KOD1 171226Z 35012KT 05/03 A3012 RMK A01 T00500028  RH  086%=      5-min Rain = 0
KOD1 171227Z 35014KT 05/03 A3012 RMK A01 T00500028  RH  086%=      5-min Rain = 0
KOD1 171228Z 35013KT 05/03 A3012 RMK A01 T00490028  RH  086%=      5-min Rain = 0
KOD1 171229Z 35013KT 05/03 A3012 RMK A01 T00490027  RH  086%=      5-min Rain = 0
KOD1 171230Z 35013KT 05/03 A3012 RMK A01 T00490027  RH  086%=      5-min Rain = 0
KOD1 171231Z 35012KT 05/03 A3012 RMK A01 T00490027  RH  086%=      5-min Rain = 0
KOD1 171232Z 35011KT 05/03 A3013 RMK A01 T00490027  RH  086%=      5-min Rain = 0
KOD1 171233Z 36013KT 05/03 A3013 RMK A01 T00490027  RH  086%=      5-min Rain = 0
KOD1 171234Z 00011KT 05/03 A3013 RMK A01 T00490027  RH  086%=      5-min Rain = 0
KOD1 171235Z 35013KT 05/03 A3013 RMK A01 T00490027  RH  086%=      5-min Rain = 0
KOD1 171236Z 35010KT 05/03 A3013 RMK A01 T00490027  RH  086%=      5-min Rain = 0
KOD1 171237Z 34010KT 05/03 A3013 RMK A01 T00490027  RH  086%=      5-min Rain = 0
KOD1 171238Z 35011KT 05/03 A3013 RMK A01 T00490027  RH  086%=      5-min Rain = 0
KOD1 171239Z 35012KT 05/03 A3012 RMK A01 T00490027  RH  086%=      5-min Rain = 0
KOD1 171240Z 35011KT 05/03 A3012 RMK A01 T00480027  RH  086%=      5-min Rain = 0
KOD1 171241Z 35011KT 05/03 A3012 RMK A01 T00480027  RH  086%=      5-min Rain = 0
KOD1 171242Z 35011KT 05/03 A3013 RMK A01 T00480027  RH  086%=      5-min Rain = 0
KOD1 171243Z 35010KT 05/03 A3013 RMK A01 T00480027  RH  086%=      5-min Rain = 0
KOD1 171244Z 35011KT 05/03 A3013 RMK A01 T00480027  RH  086%=      5-min Rain = 0
KOD1 171245Z 35011KT 05/03 A3013 RMK A01 T00480027  RH  086%=      5-min Rain = 0
KOD1 171246Z 35011KT 05/03 A3013 RMK A01 T00470027  RH  086%=      5-min Rain = 0
KOD1 171247Z 35009KT 05/03 A3013 RMK A01 T00470027  RH  086%=      5-min Rain = 0
KOD1 171248Z 35010KT 05/03 A3013 RMK A01 T00470026  RH  086%=      5-min Rain = 0
KOD1 171249Z 36010KT 05/03 A3013 RMK A01 T00470026  RH  087%=      5-min Rain = 0
KOD1 171250Z 36010KT 05/03 A3013 RMK A01 T00470026  RH  087%=      5-min Rain = 0
KOD1 171251Z 36011KT 05/03 A3013 RMK A01 T00470026  RH  087%=      5-min Rain = 0
KOD1 171252Z 00011KT 05/03 A3013 RMK A01 T00460026  RH  087%=      5-min Rain = 0
KOD1 171253Z 00012KT 05/03 A3014 RMK A01 T00460026  RH  087%=      5-min Rain = 0
KOD1 171254Z 36011KT 05/03 A3014 RMK A01 T00460026  RH  087%=      5-min Rain = 0
KOD1 171255Z 36010KT 05/03 A3014 RMK A01 T00460026  RH  087%=      5-min Rain = 0
KOD1 171256Z 36010KT 05/03 A3014 RMK A01 T00460026  RH  087%=      5-min Rain = 0
KOD1 171257Z 36010KT 05/03 A3014 RMK A01 T00460026  RH  087%=      5-min Rain = 0
KOD1 171258Z 36009KT 05/03 A3014 RMK A01 T00450026  RH  087%=      5-min Rain = 0
KOD1 171259Z 36007KT 05/03 A3014 RMK A01 T00450026  RH  087%=      5-min Rain = 0
KOD1 171300Z 36008KT 05/03 A3014 RMK A01 T00450026  RH  087%=      5-min Rain = 0
KOD1 171301Z 35008KT 05/03 A3014 RMK A01 T00450026  RH  087%=      5-min Rain = 0
KOD1 171302Z 35007KT 05/03 A3014 RMK A01 T00450026  RH  088%=      5-min Rain = 0
KOD1 171303Z 35007KT 05/03 A3015 RMK A01 T00450026  RH  088%=      5-min Rain = 0
KOD1 171304Z 35007KT 05/03 A3015 RMK A01 T00450026  RH  088%=      5-min Rain = 0
KOD1 171305Z 36008KT 05/03 A3015 RMK A01 T00450027  RH  088%=      5-min Rain = 0
KOD1 171306Z 35007KT 05/03 A3015 RMK A01 T00450027  RH  088%=      5-min Rain = 0
KOD1 171307Z 35008KT 05/03 A3015 RMK A01 T00450027  RH  088%=      5-min Rain = 0
KOD1 171308Z 35007KT 05/03 A3015 RMK A01 T00450027  RH  088%=      5-min Rain = 0
KOD1 171309Z 35008KT 05/03 A3015 RMK A01 T00460027  RH  088%=      5-min Rain = 0
KOD1 171310Z 35008KT 05/03 A3015 RMK A01 T00460027  RH  088%=      5-min Rain = 0
KOD1 171311Z 35007KT 05/03 A3015 RMK A01 T00460027  RH  088%=      5-min Rain = 0
KOD1 171312Z 35008KT 05/03 A3015 RMK A01 T00460027  RH  087%=      5-min Rain = 0
KOD1 171313Z 36009KT 05/03 A3015 RMK A01 T00460027  RH  087%=      5-min Rain = 0
KOD1 171314Z 00010KT 05/03 A3015 RMK A01 T00460026  RH  087%=      5-min Rain = 0
KOD1 171315Z 35010KT 05/03 A3015 RMK A01 T00450025  RH  087%=      5-min Rain = 0
KOD1 171316Z 35009KT 05/03 A3015 RMK A01 T00450025  RH  087%=      5-min Rain = 0
KOD1 171317Z 35011KT 05/03 A3015 RMK A01 T00450025  RH  087%=      5-min Rain = 0
KOD1 171318Z 35011KT 04/02 A3016 RMK A01 T00440024  RH  087%=      5-min Rain = 0
KOD1 171319Z 35012KT 04/02 A3015 RMK A01 T00440024  RH  087%=      5-min Rain = 0
KOD1 171320Z 34011KT 04/02 A3015 RMK A01 T00440023  RH  087%=      5-min Rain = 0
KOD1 171321Z 33010KT 04/02 A3015 RMK A01 T00430023  RH  087%=      5-min Rain = 0
KOD1 171322Z 34010KT 04/02 A3016 RMK A01 T00430023  RH  087%=      5-min Rain = 0
KOD1 171323Z 33010KT 04/02 A3016 RMK A01 T00430023  RH  087%=      5-min Rain = 0
KOD1 171324Z 34011KT 04/02 A3016 RMK A01 T00430023  RH  087%=      5-min Rain = 0
KOD1 171325Z 34011KT 04/02 A3016 RMK A01 T00430022  RH  087%=      5-min Rain = 0
KOD1 171326Z 34009KT 04/02 A3016 RMK A01 T00430023  RH  087%=      5-min Rain = 0
KOD1 171327Z 34009KT 04/02 A3016 RMK A01 T00420023  RH  087%=      5-min Rain = 0
KOD1 171328Z 35010KT 04/02 A3016 RMK A01 T00420023  RH  087%=      5-min Rain = 0
KOD1 171329Z 35012KT 04/02 A3016 RMK A01 T00420023  RH  087%=      5-min Rain = 0
KOD1 171330Z 35011KT 04/02 A3016 RMK A01 T00420023  RH  087%=      5-min Rain = 0
KOD1 171331Z 34010KT 04/02 A3016 RMK A01 T00420022  RH  087%=      5-min Rain = 0
KOD1 171332Z 35010KT 04/02 A3016 RMK A01 T00420023  RH  087%=      5-min Rain = 0
KOD1 171333Z 35010KT 04/02 A3016 RMK A01 T00420023  RH  088%=      5-min Rain = 0
KOD1 171334Z 35009KT 04/02 A3016 RMK A01 T00420023  RH  088%=      5-min Rain = 0
KOD1 171335Z 34010KT 04/02 A3016 RMK A01 T00420023  RH  088%=      5-min Rain = 0
KOD1 171336Z 34009KT 04/02 A3016 RMK A01 T00410023  RH  088%=      5-min Rain = 0
KOD1 171337Z 34007KT 04/02 A3017 RMK A01 T00420023  RH  088%=      5-min Rain = 0
KOD1 171338Z 33007KT 04/02 A3017 RMK A01 T00420023  RH  088%=      5-min Rain = 0
KOD1 171339Z 33007KT 04/02 A3017 RMK A01 T00420023  RH  088%=      5-min Rain = 0
KOD1 171340Z 33008KT 04/02 A3017 RMK A01 T00420023  RH  088%=      5-min Rain = 0
KOD1 171341Z 34010KT 04/02 A3017 RMK A01 T00420023  RH  088%=      5-min Rain = 0
KOD1 171342Z 33008KT 04/02 A3017 RMK A01 T00420023  RH  088%=      5-min Rain = 0
KOD1 171343Z 33009KT 04/02 A3017 RMK A01 T00420023  RH  088%=      5-min Rain = 0
KOD1 171344Z 33009KT 04/02 A3017 RMK A01 T00420023  RH  088%=      5-min Rain = 0
KOD1 171345Z 33011KT 04/02 A3017 RMK A01 T00420023  RH  088%=      5-min Rain = 0
KOD1 171346Z 33011KT 04/02 A3017 RMK A01 T00420023  RH  087%=      5-min Rain = 0
KOD1 171347Z 33009KT 04/02 A3017 RMK A01 T00420023  RH  087%=      5-min Rain = 0
KOD1 171348Z 33011KT 04/02 A3017 RMK A01 T00420023  RH  087%=      5-min Rain = 0
KOD1 171349Z 33008KT 04/02 A3017 RMK A01 T00420023  RH  087%=      5-min Rain = 0
KOD1 171350Z 34009KT 04/02 A3017 RMK A01 T00420023  RH  087%=      5-min Rain = 0
KOD1 171351Z 33009KT 04/02 A3017 RMK A01 T00420023  RH  087%=      5-min Rain = 0
KOD1 171352Z 33010KT 04/02 A3017 RMK A01 T00420023  RH  087%=      5-min Rain = 0
KOD1 171353Z 33009KT 04/02 A3018 RMK A01 T00420023  RH  087%=      5-min Rain = 0
KOD1 171354Z 33009KT 04/02 A3018 RMK A01 T00420023  RH  087%=      5-min Rain = 0
KOD1 171355Z 33007KT 04/02 A3018 RMK A01 T00430023  RH  087%=      5-min Rain = 0
KOD1 171356Z 33008KT 04/02 A3018 RMK A01 T00430023  RH  087%=      5-min Rain = 0
KOD1 171357Z 33008KT 04/02 A3018 RMK A01 T00430023  RH  087%=      5-min Rain = 0
KOD1 171358Z 33008KT 04/02 A3018 RMK A01 T00430023  RH  087%=      5-min Rain = 0
KOD1 171359Z 33009KT 04/02 A3018 RMK A01 T00430023  RH  087%=      5-min Rain = 0
KOD1 171400Z 33011KT 04/02 A3018 RMK A01 T00430023  RH  087%=      5-min Rain = 0
KOD1 171401Z 33011KT 04/02 A3018 RMK A01 T00430022  RH  087%=      5-min Rain = 0
KOD1 171402Z 33008KT 04/02 A3019 RMK A01 T00430023  RH  087%=      5-min Rain = 0
KOD1 171403Z 33010KT 04/02 A3019 RMK A01 T00430023  RH  087%=      5-min Rain = 0
KOD1 171404Z 33008KT 04/02 A3019 RMK A01 T00420022  RH  087%=      5-min Rain = 0
KOD1 171405Z 34008KT 04/02 A3019 RMK A01 T00420022  RH  087%=      5-min Rain = 0
KOD1 171406Z 33007KT 04/02 A3019 RMK A01 T00420022  RH  087%=      5-min Rain = 0
KOD1 171407Z 33009KT 04/02 A3019 RMK A01 T00430022  RH  087%=      5-min Rain = 0
KOD1 171408Z 33007KT 04/02 A3019 RMK A01 T00430022  RH  087%=      5-min Rain = 0
KOD1 171409Z 33009KT 04/02 A3019 RMK A01 T00420022  RH  086%=      5-min Rain = 0
KOD1 171410Z 33009KT 04/02 A3019 RMK A01 T00420022  RH  086%=      5-min Rain = 0
KOD1 171411Z 33008KT 04/02 A3019 RMK A01 T00430022  RH  086%=      5-min Rain = 0
KOD1 171412Z 33008KT 04/02 A3019 RMK A01 T00430022  RH  086%=      5-min Rain = 0
KOD1 171413Z 33009KT 04/02 A3019 RMK A01 T00430022  RH  086%=      5-min Rain = 0
KOD1 171414Z 33009KT 04/02 A3019 RMK A01 T00430022  RH  086%=      5-min Rain = 0
KOD1 171415Z 34010KT 04/02 A3019 RMK A01 T00430021  RH  086%=      5-min Rain = 0
KOD1 171416Z 35007KT 04/02 A3019 RMK A01 T00430022  RH  086%=      5-min Rain = 0
KOD1 171417Z 34007KT 04/02 A3019 RMK A01 T00430022  RH  086%=      5-min Rain = 0
KOD1 171418Z 35009KT 04/02 A3019 RMK A01 T00430021  RH  086%=      5-min Rain = 0
KOD1 171419Z 35009KT 04/02 A3019 RMK A01 T00430021  RH  086%=      5-min Rain = 0
KOD1 171420Z 34008KT 04/02 A3019 RMK A01 T00430021  RH  086%=      5-min Rain = 0
KOD1 171421Z 34011KT 04/02 A3019 RMK A01 T00430021  RH  086%=      5-min Rain = 0
KOD1 171422Z 34011KT 04/02 A3019 RMK A01 T00430020  RH  086%=      5-min Rain = 0
KOD1 171423Z 34010KT 04/02 A3019 RMK A01 T00420020  RH  086%=      5-min Rain = 0
KOD1 171424Z 34010KT 04/02 A3019 RMK A01 T00420020  RH  086%=      5-min Rain = 0
KOD1 171425Z 34010KT 04/02 A302 RMK A01 T00420020  RH  086%=      5-min Rain = 0
KOD1 171426Z 34012KT 04/02 A3019 RMK A01 T00420019  RH  086%=      5-min Rain = 0
KOD1 171427Z 33010KT 04/02 A302 RMK A01 T00410019  RH  086%=      5-min Rain = 0
KOD1 171428Z 33010KT 04/02 A302 RMK A01 T00410019  RH  086%=      5-min Rain = 0
KOD1 171429Z 33007KT 04/02 A302 RMK A01 T00400019  RH  086%=      5-min Rain = 0
KOD1 171430Z 32009KT 04/02 A302 RMK A01 T00410020  RH  086%=      5-min Rain = 0
KOD1 171431Z 33008KT 04/02 A302 RMK A01 T00410020  RH  086%=      5-min Rain = 0
KOD1 171432Z 34009KT 04/02 A302 RMK A01 T00410020  RH  086%=      5-min Rain = 0
KOD1 171433Z 35008KT 04/02 A302 RMK A01 T00410020  RH  086%=      5-min Rain = 0
KOD1 171434Z 34008KT 04/02 A302 RMK A01 T00410020  RH  086%=      5-min Rain = 0
KOD1 171435Z 33009KT 04/02 A302 RMK A01 T00410020  RH  086%=      5-min Rain = 0
KOD1 171436Z 33008KT 04/02 A302 RMK A01 T00410020  RH  086%=      5-min Rain = 0
KOD1 171437Z 33009KT 04/02 A302 RMK A01 T00410020  RH  086%=      5-min Rain = 0
KOD1 171438Z 33007KT 04/02 A302 RMK A01 T00410020  RH  087%=      5-min Rain = 0
KOD1 171439Z 33007KT 04/02 A302 RMK A01 T00410021  RH  087%=      5-min Rain = 0
KOD1 171440Z 33007KT 04/02 A302 RMK A01 T00410021  RH  087%=      5-min Rain = 0
KOD1 171441Z 33009KT 04/02 A302 RMK A01 T00420021  RH  086%=      5-min Rain = 0
KOD1 171442Z 32011KT 04/02 A302 RMK A01 T00420020  RH  086%=      5-min Rain = 0
KOD1 171443Z 33011KT 04/02 A302 RMK A01 T00410020  RH  086%=      5-min Rain = 0
KOD1 171444Z 33009KT 04/02 A302 RMK A01 T00420020  RH  086%=      5-min Rain = 0
KOD1 171445Z 33010KT 04/02 A302 RMK A01 T00420020  RH  086%=      5-min Rain = 0
KOD1 171446Z 33011KT 04/02 A302 RMK A01 T00420020  RH  086%=      5-min Rain = 0
KOD1 171447Z 33008KT 04/02 A302 RMK A01 T00420020  RH  086%=      5-min Rain = 0
KOD1 171448Z 33008KT 04/02 A302 RMK A01 T00420021  RH  086%=      5-min Rain = 0
KOD1 171449Z 33010KT 04/02 A302 RMK A01 T00420021  RH  086%=      5-min Rain = 0
KOD1 171450Z 33010KT 04/02 A302 RMK A01 T00420021  RH  086%=      5-min Rain = 0
KOD1 171451Z 33008KT 04/02 A302 RMK A01 T00420020  RH  086%=      5-min Rain = 0
KOD1 171452Z 33009KT 04/02 A302 RMK A01 T00420021  RH  086%=      5-min Rain = 0
KOD1 171453Z 34010KT 04/02 A302 RMK A01 T00420020  RH  085%=      5-min Rain = 0
KOD1 171454Z 34010KT 04/02 A302 RMK A01 T00420020  RH  085%=      5-min Rain = 0
KOD1 171455Z 34007KT 04/02 A302 RMK A01 T00420020  RH  086%=      5-min Rain = 0
KOD1 171456Z 34008KT 04/02 A302 RMK A01 T00420020  RH  086%=      5-min Rain = 0
KOD1 171457Z 35007KT 04/02 A302 RMK A01 T00420020  RH  086%=      5-min Rain = 0
KOD1 171458Z 36007KT 04/02 A302 RMK A01 T00430021  RH  086%=      5-min Rain = 0
KOD1 171459Z 35006KT 04/02 A302 RMK A01 T00430022  RH  086%=      5-min Rain = 0
KOD1 171500Z 35006KT 04/02 A302 RMK A01 T00440022  RH  086%=      5-min Rain = 0
KOD1 171501Z 35007KT 04/02 A302 RMK A01 T00440022  RH  086%=      5-min Rain = 0
KOD1 171502Z 35008KT 04/02 A302 RMK A01 T00440022  RH  085%=      5-min Rain = 0
KOD1 171503Z 36009KT 04/02 A302 RMK A01 T00440021  RH  085%=      5-min Rain = 0
KOD1 171504Z 00008KT 04/02 A302 RMK A01 T00440021  RH  085%=      5-min Rain = 0
KOD1 171505Z 00009KT 05/02 A302 RMK A01 T00450022  RH  085%=      5-min Rain = 0
KOD1 171506Z 36009KT 05/02 A302 RMK A01 T00460023  RH  085%=      5-min Rain = 0
KOD1 171507Z 36009KT 05/02 A302 RMK A01 T00460023  RH  085%=      5-min Rain = 0
KOD1 171508Z 36009KT 05/02 A302 RMK A01 T00460023  RH  085%=      5-min Rain = 0
KOD1 171509Z 36009KT 05/02 A302 RMK A01 T00460023  RH  085%=      5-min Rain = 0
KOD1 171510Z 35009KT 05/02 A302 RMK A01 T00460022  RH  084%=      5-min Rain = 0
KOD1 171511Z 35010KT 05/02 A302 RMK A01 T00460022  RH  084%=      5-min Rain = 0
KOD1 171512Z 35009KT 05/02 A302 RMK A01 T00460022  RH  085%=      5-min Rain = 0
KOD1 171513Z 34010KT 05/02 A302 RMK A01 T00460022  RH  084%=      5-min Rain = 0
KOD1 171514Z 35010KT 05/02 A302 RMK A01 T00460021  RH  084%=      5-min Rain = 0
KOD1 171515Z 35009KT 05/02 A302 RMK A01 T00460022  RH  084%=      5-min Rain = 0
KOD1 171516Z 33010KT 05/02 A302 RMK A01 T00460022  RH  085%=      5-min Rain = 0
KOD1 171517Z 34011KT 05/02 A302 RMK A01 T00460022  RH  084%=      5-min Rain = 0
KOD1 171518Z 34011KT 05/02 A302 RMK A01 T00460021  RH  084%=      5-min Rain = 0
KOD1 171519Z 34009KT 05/02 A302 RMK A01 T00450022  RH  084%=      5-min Rain = 0
KOD1 171520Z 34011KT 05/02 A3021 RMK A01 T00450021  RH  084%=      5-min Rain = 0
KOD1 171521Z 34008KT 05/02 A3021 RMK A01 T00450021  RH  085%=      5-min Rain = 0
KOD1 171522Z 34009KT 05/02 A302 RMK A01 T00450022  RH  085%=      5-min Rain = 0
KOD1 171523Z 33009KT 05/02 A302 RMK A01 T00450022  RH  085%=      5-min Rain = 0
KOD1 171524Z 33009KT 05/02 A302 RMK A01 T00460022  RH  085%=      5-min Rain = 0
KOD1 171525Z 34010KT 05/02 A302 RMK A01 T00460022  RH  085%=      5-min Rain = 0
KOD1 171526Z 34009KT 05/02 A302 RMK A01 T00460022  RH  084%=      5-min Rain = 0
KOD1 171527Z 34008KT 05/02 A302 RMK A01 T00470023  RH  084%=      5-min Rain = 0
KOD1 171528Z 35009KT 05/02 A302 RMK A01 T00480024  RH  085%=      5-min Rain = 0
KOD1 171529Z 35011KT 05/02 A302 RMK A01 T00490024  RH  084%=      5-min Rain = 0
KOD1 171530Z 35010KT 05/02 A302 RMK A01 T00490023  RH  084%=      5-min Rain = 0
KOD1 171531Z 35012KT 05/02 A302 RMK A01 T00490023  RH  083%=      5-min Rain = 0
KOD1 171532Z 33012KT 05/02 A302 RMK A01 T00490022  RH  083%=      5-min Rain = 0
KOD1 171533Z 35013KT 05/02 A302 RMK A01 T00490022  RH  083%=      5-min Rain = 0
KOD1 171534Z 34014KT 05/02 A302 RMK A01 T00480022  RH  083%=      5-min Rain = 0
KOD1 171535Z 35013KT 05/02 A302 RMK A01 T00470021  RH  083%=      5-min Rain = 0
KOD1 171536Z 36012KT 05/02 A302 RMK A01 T00460021  RH  084%=      5-min Rain = 0
KOD1 171537Z 36012KT 05/02 A302 RMK A01 T00460021  RH  084%=      5-min Rain = 0
KOD1 171538Z 01010KT 05/02 A302 RMK A01 T00460022  RH  085%=      5-min Rain = 0
KOD1 171539Z 01010KT 05/02 A302 RMK A01 T00460022  RH  085%=      5-min Rain = 0
KOD1 171540Z 00010KT 05/02 A302 RMK A01 T00460022  RH  084%=      5-min Rain = 0
KOD1 171541Z 01010KT 05/02 A302 RMK A01 T00460020  RH  084%=      5-min Rain = 0
KOD1 171542Z 35009KT 05/02 A3021 RMK A01 T00450021  RH  085%=      5-min Rain = 0
KOD1 171543Z 35007KT 05/02 A3021 RMK A01 T00450021  RH  085%=      5-min Rain = 0
KOD1 171544Z 34006KT 05/02 A3021 RMK A01 T00450022  RH  085%=      5-min Rain = 0
KOD1 171545Z 33006KT 05/02 A3021 RMK A01 T00450022  RH  085%=      5-min Rain = 0
KOD1 171546Z 33007KT 05/02 A3021 RMK A01 T00460022  RH  085%=      5-min Rain = 0
KOD1 171547Z 34006KT 05/02 A3021 RMK A01 T00460022  RH  085%=      5-min Rain = 0
KOD1 171548Z 36004KT 05/02 A3021 RMK A01 T00460022  RH  085%=      5-min Rain = 0
KOD1 171549Z 32005KT 05/02 A3021 RMK A01 T00460022  RH  084%=      5-min Rain = 0
KOD1 171550Z 33006KT 05/02 A3021 RMK A01 T00470022  RH  084%=      5-min Rain = 0
KOD1 171551Z 33006KT 05/02 A3021 RMK A01 T00470024  RH  085%=      5-min Rain = 0
KOD1 171552Z 34008KT 05/02 A3021 RMK A01 T00480024  RH  084%=      5-min Rain = 0
KOD1 171553Z 34009KT 05/02 A3021 RMK A01 T00480023  RH  084%=      5-min Rain = 0
KOD1 171554Z 34007KT 05/02 A3021 RMK A01 T00480023  RH  083%=      5-min Rain = 0
KOD1 171555Z 33008KT 05/02 A3021 RMK A01 T00480023  RH  083%=      5-min Rain = 0
KOD1 171556Z 33009KT 05/02 A3021 RMK A01 T00480022  RH  083%=      5-min Rain = 0
KOD1 171557Z 33009KT 05/02 A3021 RMK A01 T00480022  RH  083%=      5-min Rain = 0
KOD1 171558Z 34011KT 05/02 A3021 RMK A01 T00480022  RH  083%=      5-min Rain = 0
KOD1 171559Z 34008KT 05/02 A3021 RMK A01 T00480022  RH  083%=      5-min Rain = 0
KOD1 171600Z 34008KT 05/02 A3021 RMK A01 T00480022  RH  083%=      5-min Rain = 0
KOD1 171601Z 34008KT 05/02 A3021 RMK A01 T00480022  RH  084%=      5-min Rain = 0
KOD1 171602Z 34008KT 05/02 A3021 RMK A01 T00480023  RH  084%=      5-min Rain = 0
KOD1 171603Z 35007KT 05/02 A3021 RMK A01 T00480023  RH  083%=      5-min Rain = 0
KOD1 171604Z 35008KT 05/02 A3021 RMK A01 T00490023  RH  083%=      5-min Rain = 0
KOD1 171605Z 35008KT 05/02 A3021 RMK A01 T00490022  RH  083%=      5-min Rain = 0
KOD1 171606Z 35008KT 05/02 A3021 RMK A01 T00490023  RH  083%=      5-min Rain = 0
KOD1 171607Z 34007KT 05/02 A3021 RMK A01 T00490024  RH  083%=      5-min Rain = 0
KOD1 171608Z 34008KT 05/02 A3021 RMK A01 T00500024  RH  083%=      5-min Rain = 0
KOD1 171609Z 34007KT 05/03 A3021 RMK A01 T00510025  RH  083%=      5-min Rain = 0
KOD1 171610Z 35007KT 05/02 A3021 RMK A01 T00520024  RH  082%=      5-min Rain = 0
KOD1 171611Z 34007KT 05/02 A3021 RMK A01 T00520024  RH  082%=      5-min Rain = 0
KOD1 171612Z 34006KT 05/02 A3021 RMK A01 T00520023  RH  082%=      5-min Rain = 0
KOD1 171613Z 35007KT 05/02 A3021 RMK A01 T00520024  RH  082%=      5-min Rain = 0
KOD1 171614Z 34009KT 05/02 A3021 RMK A01 T00530024  RH  082%=      5-min Rain = 0
KOD1 171615Z 34008KT 05/02 A3022 RMK A01 T00530023  RH  081%=      5-min Rain = 0
KOD1 171616Z 35008KT 05/02 A3022 RMK A01 T00530024  RH  082%=      5-min Rain = 0
KOD1 171617Z 35007KT 05/02 A3022 RMK A01 T00520023  RH  081%=      5-min Rain = 0
KOD1 171618Z 35006KT 05/02 A3022 RMK A01 T00520023  RH  081%=      5-min Rain = 0
KOD1 171619Z 34005KT 05/02 A3022 RMK A01 T00520023  RH  081%=      5-min Rain = 0
KOD1 171620Z 34004KT 05/02 A3022 RMK A01 T00520024  RH  082%=      5-min Rain = 0
KOD1 171621Z 33004KT 05/02 A3022 RMK A01 T00530024  RH  082%=      5-min Rain = 0
KOD1 171622Z 34006KT 05/03 A3022 RMK A01 T00540025  RH  082%=      5-min Rain = 0
KOD1 171623Z 00005KT 06/03 A3022 RMK A01 T00550026  RH  081%=      5-min Rain = 0
KOD1 171624Z 34004KT 06/03 A3021 RMK A01 T00560026  RH  081%=      5-min Rain = 0
KOD1 171625Z 35005KT 06/03 A3021 RMK A01 T00580029  RH  082%=      5-min Rain = 0
KOD1 171626Z 02009KT 06/03 A3021 RMK A01 T00610029  RH  080%=      5-min Rain = 0
KOD1 171627Z 02009KT 06/03 A3021 RMK A01 T00610025  RH  078%=      5-min Rain = 0
KOD1 171628Z 03009KT 06/03 A3021 RMK A01 T00600026  RH  079%=      5-min Rain = 0
KOD1 171629Z 02009KT 06/03 A3021 RMK A01 T00600027  RH  079%=      5-min Rain = 0
KOD1 171630Z 01007KT 06/03 A3021 RMK A01 T00610027  RH  079%=      5-min Rain = 0
KOD1 171631Z 01009KT 06/03 A3021 RMK A01 T00620027  RH  079%=      5-min Rain = 0
KOD1 171632Z 02008KT 06/03 A3021 RMK A01 T00630028  RH  078%=      5-min Rain = 0
KOD1 171633Z 01008KT 06/03 A3021 RMK A01 T00630027  RH  077%=      5-min Rain = 0
KOD1 171634Z 02008KT 06/03 A3021 RMK A01 T00630026  RH  077%=      5-min Rain = 0
KOD1 171635Z 02007KT 06/03 A3021 RMK A01 T00620025  RH  077%=      5-min Rain = 0
KOD1 171636Z 03007KT 06/03 A3021 RMK A01 T00610026  RH  078%=      5-min Rain = 0
KOD1 171637Z 03007KT 06/03 A3021 RMK A01 T00620027  RH  078%=      5-min Rain = 0
KOD1 171638Z 02008KT 06/03 A3021 RMK A01 T00630028  RH  078%=      5-min Rain = 0
KOD1 171639Z 02005KT 06/03 A3021 RMK A01 T00640027  RH  077%=      5-min Rain = 0
KOD1 171640Z 02004KT 06/03 A3022 RMK A01 T00640026  RH  077%=      5-min Rain = 0
KOD1 171641Z 01004KT 06/03 A3022 RMK A01 T00640030  RH  079%=      5-min Rain = 0
KOD1 171642Z 01005KT 07/03 A3022 RMK A01 T00670032  RH  078%=      5-min Rain = 0
KOD1 171643Z 01007KT 07/03 A3022 RMK A01 T00690028  RH  075%=      5-min Rain = 0
KOD1 171644Z 00006KT 07/03 A3022 RMK A01 T00670026  RH  075%=      5-min Rain = 0
KOD1 171645Z 36006KT 07/02 A3022 RMK A01 T00650024  RH  075%=      5-min Rain = 0
KOD1 171646Z 35005KT 06/02 A3022 RMK A01 T00630023  RH  076%=      5-min Rain = 0
KOD1 171647Z 01005KT 06/02 A3022 RMK A01 T00610024  RH  077%=      5-min Rain = 0
KOD1 171648Z 01005KT 06/02 A3023 RMK A01 T00600024  RH  077%=      5-min Rain = 0
KOD1 171649Z 02006KT 06/03 A3023 RMK A01 T00610026  RH  078%=      5-min Rain = 0
KOD1 171650Z 02005KT 06/03 A3023 RMK A01 T00610025  RH  078%=      5-min Rain = 0
KOD1 171651Z 02005KT 06/03 A3023 RMK A01 T00610026  RH  078%=      5-min Rain = 0
KOD1 171652Z 02005KT 06/03 A3023 RMK A01 T00620025  RH  077%=      5-min Rain = 0
KOD1 171653Z 02004KT 06/02 A3023 RMK A01 T00620024  RH  077%=      5-min Rain = 0
KOD1 171654Z 04004KT 06/02 A3023 RMK A01 T00610023  RH  077%=      5-min Rain = 0
KOD1 171655Z 06003KT 06/02 A3023 RMK A01 T00600024  RH  077%=      5-min Rain = 0
KOD1 171656Z 06003KT 06/03 A3023 RMK A01 T00610025  RH  078%=      5-min Rain = 0
KOD1 171657Z 06003KT 06/02 A3023 RMK A01 T00610023  RH  077%=      5-min Rain = 0
KOD1 171658Z 05003KT 06/03 A3023 RMK A01 T00610025  RH  077%=      5-min Rain = 0
KOD1 171659Z 05003KT 06/03 A3023 RMK A01 T00620025  RH  077%=      5-min Rain = 0
KOD1 171700Z 05002KT 06/03 A3023 RMK A01 T00630027  RH  078%=      5-min Rain = 0
KOD1 171701Z 03003KT 07/03 A3023 RMK A01 T00650025  RH  076%=      5-min Rain = 0
KOD1 171702Z 05003KT 07/03 A3023 RMK A01 T00650026  RH  076%=      5-min Rain = 0
KOD1 171703Z 05001KT 07/03 A3023 RMK A01 T00660026  RH  076%=      5-min Rain = 0
KOD1 171704Z 05002KT 07/03 A3023 RMK A01 T00660028  RH  076%=      5-min Rain = 0
KOD1 171705Z 05003KT 07/03 A3023 RMK A01 T00670027  RH  076%=      5-min Rain = 0
KOD1 171706Z 03005KT 07/03 A3022 RMK A01 T00670029  RH  076%=      5-min Rain = 0
KOD1 171707Z 00005KT 07/03 A3022 RMK A01 T00690029  RH  076%=      5-min Rain = 0
KOD1 171708Z 33003KT 07/03 A3022 RMK A01 T00700028  RH  075%=      5-min Rain = 0
KOD1 171709Z 03004KT 07/03 A3022 RMK A01 T00700028  RH  075%=      5-min Rain = 0
KOD1 171710Z 05005KT 07/03 A3022 RMK A01 T00700027  RH  074%=      5-min Rain = 0
KOD1 171711Z 06004KT 07/03 A3023 RMK A01 T00680025  RH  074%=      5-min Rain = 0
KOD1 171712Z 05004KT 07/03 A3023 RMK A01 T00670026  RH  075%=      5-min Rain = 0
KOD1 171713Z 06003KT 07/03 A3023 RMK A01 T00670027  RH  076%=      5-min Rain = 0
KOD1 171714Z 04003KT 07/03 A3022 RMK A01 T00670027  RH  076%=      5-min Rain = 0
KOD1 171715Z 33004KT 07/03 A3022 RMK A01 T00690029  RH  076%=      5-min Rain = 0
KOD1 171716Z 31002KT 07/03 A3023 RMK A01 T00710029  RH  074%=      5-min Rain = 0
KOD1 171717Z 36002KT 07/03 A3023 RMK A01 T00710029  RH  074%=      5-min Rain = 0
KOD1 171718Z 04004KT 07/03 A3023 RMK A01 T00720028  RH  074%=      5-min Rain = 0
KOD1 171719Z 09002KT 07/03 A3023 RMK A01 T00700027  RH  074%=      5-min Rain = 0
KOD1 171720Z 07002KT 07/03 A3023 RMK A01 T00710029  RH  075%=      5-min Rain = 0
KOD1 171721Z 05001KT 07/03 A3023 RMK A01 T00720028  RH  074%=      5-min Rain = 0
KOD1 171722Z 34002KT 07/03 A3023 RMK A01 T00720028  RH  074%=      5-min Rain = 0
KOD1 171723Z 36004KT 07/03 A3023 RMK A01 T00720029  RH  074%=      5-min Rain = 0
KOD1 171724Z 34004KT 07/03 A3023 RMK A01 T00730029  RH  074%=      5-min Rain = 0
KOD1 171725Z 00002KT 07/03 A3023 RMK A01 T00730029  RH  074%=      5-min Rain = 0
KOD1 171726Z 35001KT 07/03 A3023 RMK A01 T00730031  RH  074%=      5-min Rain = 0
KOD1 171727Z 07001KT 08/03 A3023 RMK A01 T00750033  RH  075%=      5-min Rain = 0
KOD1 171728Z 03002KT 08/03 A3023 RMK A01 T00760030  RH  073%=      5-min Rain = 0
KOD1 171729Z 02003KT 08/03 A3023 RMK A01 T00770031  RH  073%=      5-min Rain = 0
KOD1 171730Z 02004KT 08/03 A3023 RMK A01 T00760027  RH  071%=      5-min Rain = 0
KOD1 171731Z 02003KT 07/03 A3023 RMK A01 T00740027  RH  072%=      5-min Rain = 0
KOD1 171732Z 03002KT 07/03 A3023 RMK A01 T00730027  RH  073%=      5-min Rain = 0
KOD1 171733Z 04000KT 07/03 A3023 RMK A01 T00720027  RH  073%=      5-min Rain = 0
KOD1 171734Z 04001KT 07/03 A3023 RMK A01 T00730030  RH  074%=      5-min Rain = 0
KOD1 171735Z 04005KT 07/03 A3023 RMK A01 T00740030  RH  073%=      5-min Rain = 0
KOD1 171736Z 04005KT 08/03 A3023 RMK A01 T00750027  RH  072%=      5-min Rain = 0
KOD1 171737Z 05004KT 07/03 A3023 RMK A01 T00740028  RH  073%=      5-min Rain = 0
KOD1 171738Z 06003KT 07/03 A3023 RMK A01 T00730028  RH  073%=      5-min Rain = 0
KOD1 171739Z 06003KT 07/03 A3023 RMK A01 T00740028  RH  073%=      5-min Rain = 0
KOD1 171740Z 05002KT 07/03 A3023 RMK A01 T00740029  RH  073%=      5-min Rain = 0
KOD1 171741Z 01003KT 08/03 A3023 RMK A01 T00760032  RH  074%=      5-min Rain = 0
KOD1 171742Z 31001KT 08/03 A3023 RMK A01 T00790033  RH  073%=      5-min Rain = 0
KOD1 171743Z 28002KT 08/03 A3023 RMK A01 T00800030  RH  071%=      5-min Rain = 0
KOD1 171744Z 27002KT 08/03 A3023 RMK A01 T00800031  RH  071%=      5-min Rain = 0
KOD1 171745Z 34003KT 08/03 A3023 RMK A01 T00800029  RH  070%=      5-min Rain = 0
KOD1 171746Z 32002KT 08/03 A3023 RMK A01 T00800030  RH  071%=      5-min Rain = 0
KOD1 171747Z 32002KT 08/03 A3023 RMK A01 T00800029  RH  071%=      5-min Rain = 0
KOD1 171748Z 34001KT 08/03 A3023 RMK A01 T00790030  RH  071%=      5-min Rain = 0
KOD1 171749Z 26001KT 08/03 A3023 RMK A01 T00800032  RH  071%=      5-min Rain = 0
KOD1 171750Z 24001KT 08/03 A3023 RMK A01 T00810032  RH  071%=      5-min Rain = 0
KOD1 171751Z 23002KT 08/03 A3023 RMK A01 T00830031  RH  070%=      5-min Rain = 0
KOD1 171752Z 22000KT 08/03 A3023 RMK A01 T00830032  RH  070%=      5-min Rain = 0
KOD1 171753Z 07000KT 08/03 A3023 RMK A01 T00830029  RH  069%=      5-min Rain = 0
KOD1 171754Z 17000KT 08/03 A3023 RMK A01 T00820028  RH  069%=      5-min Rain = 0
KOD1 171755Z 10001KT 08/03 A3023 RMK A01 T00810030  RH  070%=      5-min Rain = 0
KOD1 171756Z 07001KT 08/03 A3023 RMK A01 T00810030  RH  070%=      5-min Rain = 0
KOD1 171757Z 11001KT 08/03 A3023 RMK A01 T00820030  RH  070%=      5-min Rain = 0
KOD1 171758Z 11000KT 08/03 A3023 RMK A01 T00830032  RH  071%=      5-min Rain = 0
KOD1 171759Z 30001KT 09/03 A3023 RMK A01 T00850034  RH  070%=      5-min Rain = 0
KOD1 171800Z 29001KT 09/03 A3023 RMK A01 T00860033  RH  069%=      5-min Rain = 0
KOD1 171801Z 24003KT 09/04 A3023 RMK A01 T00880035  RH  069%=      5-min Rain = 0
KOD1 171802Z 17004KT 09/03 A3023 RMK A01 T00880032  RH  068%=      5-min Rain = 0
KOD1 171803Z 18004KT 09/03 A3023 RMK A01 T00860031  RH  068%=      5-min Rain = 0
KOD1 171804Z 19004KT 09/03 A3023 RMK A01 T00850032  RH  069%=      5-min Rain = 0
KOD1 171805Z 19003KT 08/03 A3023 RMK A01 T00840032  RH  070%=      5-min Rain = 0
KOD1 171806Z 19003KT 08/03 A3023 RMK A01 T00840031  RH  070%=      5-min Rain = 0
KOD1 171807Z 17002KT 08/03 A3022 RMK A01 T00830032  RH  070%=      5-min Rain = 0
KOD1 171808Z 13000KT 08/03 A3022 RMK A01 T00830031  RH  070%=      5-min Rain = 0
KOD1 171809Z 21001KT 08/03 A3022 RMK A01 T00840034  RH  071%=      5-min Rain = 0
KOD1 171810Z 24004KT 09/03 A3022 RMK A01 T00850033  RH  070%=      5-min Rain = 0
KOD1 171811Z 25004KT 09/03 A3022 RMK A01 T00850032  RH  069%=      5-min Rain = 0
KOD1 171812Z 26002KT 08/03 A3022 RMK A01 T00840032  RH  070%=      5-min Rain = 0
KOD1 171813Z 25003KT 08/03 A3022 RMK A01 T00840033  RH  070%=      5-min Rain = 0
KOD1 171814Z 26004KT 08/03 A3022 RMK A01 T00830032  RH  070%=      5-min Rain = 0
KOD1 171815Z 21003KT 08/03 A3022 RMK A01 T00830033  RH  071%=      5-min Rain = 0
KOD1 171816Z 21002KT 08/03 A3022 RMK A01 T00830033  RH  071%=      5-min Rain = 0
KOD1 171817Z 21002KT 08/03 A3022 RMK A01 T00830033  RH  070%=      5-min Rain = 0
KOD1 171818Z 22003KT 08/03 A3022 RMK A01 T00840034  RH  071%=      5-min Rain = 0
KOD1 171819Z 20002KT 09/03 A3022 RMK A01 T00850033  RH  070%=      5-min Rain = 0
KOD1 171820Z 20002KT 09/03 A3022 RMK A01 T00850033  RH  070%=      5-min Rain = 0
KOD1 171821Z 26002KT 09/03 A3022 RMK A01 T00860034  RH  070%=      5-min Rain = 0
KOD1 171822Z 29001KT 09/03 A3022 RMK A01 T00870034  RH  069%=      5-min Rain = 0
KOD1 171823Z 16000KT 09/04 A3022 RMK A01 T00890035  RH  069%=      5-min Rain = 0
KOD1 171824Z 11001KT 09/03 A3021 RMK A01 T00890033  RH  068%=      5-min Rain = 0
KOD1 171825Z 14001KT 09/04 A3021 RMK A01 T00900036  RH  069%=      5-min Rain = 0
KOD1 171826Z 32002KT 09/03 A3021 RMK A01 T00920034  RH  067%=      5-min Rain = 0
KOD1 171827Z 34001KT 09/03 A3021 RMK A01 T00920034  RH  067%=      5-min Rain = 0
KOD1 171828Z 34002KT 09/03 A3021 RMK A01 T00930034  RH  067%=      5-min Rain = 0
KOD1 171829Z 35002KT 09/03 A3021 RMK A01 T00930034  RH  067%=      5-min Rain = 0
KOD1 171830Z 34001KT 09/04 A3021 RMK A01 T00930035  RH  067%=      5-min Rain = 0
KOD1 171831Z 34000KT 09/04 A3021 RMK A01 T00940038  RH  068%=      5-min Rain = 0
KOD1 171832Z 19000KT 10/04 A3021 RMK A01 T00960040  RH  068%=      5-min Rain = 0
KOD1 171833Z 19003KT 10/04 A3021 RMK A01 T00990040  RH  067%=      5-min Rain = 0
KOD1 171834Z 19003KT 10/04 A3021 RMK A01 T00990035  RH  064%=      5-min Rain = 0
KOD1 171835Z 20004KT 10/04 A3021 RMK A01 T00970037  RH  066%=      5-min Rain = 0
KOD1 171836Z 20004KT 10/03 A3021 RMK A01 T00960034  RH  066%=      5-min Rain = 0
KOD1 171837Z 19003KT 09/04 A3021 RMK A01 T00940035  RH  067%=      5-min Rain = 0
KOD1 171838Z 20002KT 09/03 A3021 RMK A01 T00930034  RH  067%=      5-min Rain = 0
KOD1 171839Z 23002KT 09/03 A302 RMK A01 T00930034  RH  067%=      5-min Rain = 0
KOD1 171840Z 18001KT 09/04 A302 RMK A01 T00930035  RH  067%=      5-min Rain = 0
KOD1 171841Z 19002KT 09/03 A302 RMK A01 T00920034  RH  067%=      5-min Rain = 0
KOD1 171842Z 15000KT 09/04 A302 RMK A01 T00930035  RH  067%=      5-min Rain = 0
KOD1 171843Z 00000KT 09/04 A302 RMK A01 T00940037  RH  067%=      5-min Rain = 0
KOD1 171844Z 20000KT 10/04 A302 RMK A01 T00970038  RH  067%=      5-min Rain = 0
KOD1 171845Z 19000KT 10/04 A3019 RMK A01 T00990037  RH  065%=      5-min Rain = 0
KOD1 171846Z 23000KT 10/04 A3019 RMK A01 T01000036  RH  065%=      5-min Rain = 0
KOD1 171847Z 21001KT 10/04 A3019 RMK A01 T01000037  RH  065%=      5-min Rain = 0
KOD1 171848Z 18001KT 10/04 A3019 RMK A01 T01000035  RH  064%=      5-min Rain = 0
KOD1 171849Z 18001KT 10/03 A3019 RMK A01 T00980034  RH  064%=      5-min Rain = 0
KOD1 171850Z 22001KT 10/04 A3019 RMK A01 T00990037  RH  065%=      5-min Rain = 0
KOD1 171851Z 21002KT 10/04 A3019 RMK A01 T00990036  RH  065%=      5-min Rain = 0
KOD1 171852Z 28003KT 10/04 A3019 RMK A01 T01000036  RH  065%=      5-min Rain = 0
KOD1 171853Z 30003KT 10/03 A3019 RMK A01 T00990034  RH  064%=      5-min Rain = 0
KOD1 171854Z 28002KT 10/04 A3019 RMK A01 T00980036  RH  065%=      5-min Rain = 0
KOD1 171855Z 28002KT 10/04 A3019 RMK A01 T00990036  RH  065%=      5-min Rain = 0
KOD1 171856Z 34001KT 10/04 A3019 RMK A01 T00990035  RH  064%=      5-min Rain = 0
KOD1 171857Z 26000KT 10/04 A3019 RMK A01 T00990036  RH  065%=      5-min Rain = 0
KOD1 171858Z 23001KT 10/04 A3019 RMK A01 T01010039  RH  066%=      5-min Rain = 0
KOD1 171859Z 28002KT 10/04 A3019 RMK A01 T01020039  RH  065%=      5-min Rain = 0
KOD1 171900Z 30001KT 10/04 A3019 RMK A01 T01030035  RH  063%=      5-min Rain = 0
KOD1 171901Z 27002KT 10/04 A3019 RMK A01 T01030037  RH  064%=      5-min Rain = 0
KOD1 171902Z 26006KT 10/04 A3018 RMK A01 T01040038  RH  064%=      5-min Rain = 0
KOD1 171903Z 25005KT 10/04 A3018 RMK A01 T01040038  RH  064%=      5-min Rain = 0
KOD1 171904Z 27004KT 10/04 A3018 RMK A01 T01040039  RH  064%=      5-min Rain = 0
KOD1 171905Z 28005KT 11/04 A3018 RMK A01 T01050039  RH  063%=      5-min Rain = 0
KOD1 171906Z 29005KT 11/04 A3018 RMK A01 T01060037  RH  062%=      5-min Rain = 0
KOD1 171907Z 30006KT 10/04 A3018 RMK A01 T01040036  RH  063%=      5-min Rain = 0
KOD1 171908Z 30005KT 10/04 A3018 RMK A01 T01040037  RH  063%=      5-min Rain = 0
KOD1 171909Z 31004KT 10/04 A3018 RMK A01 T01040035  RH  062%=      5-min Rain = 0
KOD1 171910Z 32004KT 10/04 A3018 RMK A01 T01030035  RH  063%=      5-min Rain = 0
KOD1 171911Z 34004KT 10/04 A3018 RMK A01 T01020036  RH  064%=      5-min Rain = 0
KOD1 171912Z 34003KT 10/04 A3018 RMK A01 T01020035  RH  063%=      5-min Rain = 0
KOD1 171913Z 35003KT 10/04 A3018 RMK A01 T01020036  RH  064%=      5-min Rain = 0
KOD1 171914Z 35002KT 10/04 A3018 RMK A01 T01020036  RH  063%=      5-min Rain = 0
KOD1 171915Z 00001KT 10/04 A3017 RMK A01 T01020035  RH  063%=      5-min Rain = 0
KOD1 171916Z 02001KT 10/04 A3017 RMK A01 T01020036  RH  063%=      5-min Rain = 0
KOD1 171917Z 25001KT 10/04 A3017 RMK A01 T01030036  RH  063%=      5-min Rain = 0
KOD1 171918Z 26001KT 11/04 A3017 RMK A01 T01060040  RH  064%=      5-min Rain = 0
KOD1 171919Z 31003KT 11/04 A3017 RMK A01 T01070036  RH  061%=      5-min Rain = 0
KOD1 171920Z 31003KT 11/04 A3017 RMK A01 T01070036  RH  062%=      5-min Rain = 0
KOD1 171921Z 32001KT 11/04 A3017 RMK A01 T01060036  RH  062%=      5-min Rain = 0
KOD1 171922Z 33001KT 11/04 A3017 RMK A01 T01060038  RH  063%=      5-min Rain = 0
KOD1 171923Z 21003KT 11/04 A3017 RMK A01 T01070039  RH  063%=      5-min Rain = 0
KOD1 171924Z 22003KT 11/04 A3017 RMK A01 T01080037  RH  062%=      5-min Rain = 0
KOD1 171925Z 23004KT 11/04 A3017 RMK A01 T01080038  RH  062%=      5-min Rain = 0
KOD1 171926Z 20003KT 11/04 A3017 RMK A01 T01070037  RH  062%=      5-min Rain = 0
KOD1 171927Z 21002KT 11/04 A3017 RMK A01 T01070036  RH  062%=      5-min Rain = 0
KOD1 171928Z 24001KT 11/04 A3017 RMK A01 T01060037  RH  062%=      5-min Rain = 0
KOD1 171929Z 20001KT 11/04 A3017 RMK A01 T01070036  RH  062%=      5-min Rain = 0
KOD1 171930Z 11001KT 11/04 A3017 RMK A01 T01070036  RH  061%=      5-min Rain = 0
KOD1 171931Z 17002KT 11/04 A3017 RMK A01 T01080039  RH  062%=      5-min Rain = 0
KOD1 171932Z 15002KT 11/04 A3017 RMK A01 T01090038  RH  061%=      5-min Rain = 0
KOD1 171933Z 14002KT 11/04 A3017 RMK A01 T01080035  RH  061%=      5-min Rain = 0
KOD1 171934Z 11001KT 11/04 A3017 RMK A01 T01080036  RH  061%=      5-min Rain = 0
KOD1 171935Z 14000KT 11/04 A3017 RMK A01 T01100040  RH  062%=      5-min Rain = 0
KOD1 171936Z 18001KT 11/04 A3016 RMK A01 T01120040  RH  061%=      5-min Rain = 0
KOD1 171937Z 29002KT 11/04 A3016 RMK A01 T01140041  RH  061%=      5-min Rain = 0
KOD1 171938Z 27003KT 12/04 A3016 RMK A01 T01150039  RH  059%=      5-min Rain = 0
KOD1 171939Z 27002KT 12/04 A3016 RMK A01 T01160038  RH  059%=      5-min Rain = 0
KOD1 171940Z 29001KT 12/04 A3016 RMK A01 T01150038  RH  059%=      5-min Rain = 0
KOD1 171941Z 25000KT 12/04 A3016 RMK A01 T01160040  RH  060%=      5-min Rain = 0
KOD1 171942Z 22002KT 12/04 A3016 RMK A01 T01170041  RH  060%=      5-min Rain = 0
KOD1 171943Z 19003KT 12/04 A3016 RMK A01 T01170038  RH  058%=      5-min Rain = 0
KOD1 171944Z 16002KT 12/04 A3016 RMK A01 T01160038  RH  059%=      5-min Rain = 0
KOD1 171945Z 15002KT 12/04 A3016 RMK A01 T01160037  RH  058%=      5-min Rain = 0
KOD1 171946Z 15003KT 12/04 A3016 RMK A01 T01150036  RH  058%=      5-min Rain = 0
KOD1 171947Z 14002KT 12/04 A3016 RMK A01 T01150035  RH  058%=      5-min Rain = 0
KOD1 171948Z 15002KT 12/04 A3016 RMK A01 T01150037  RH  059%=      5-min Rain = 0
KOD1 171949Z 17004KT 12/04 A3016 RMK A01 T01160040  RH  060%=      5-min Rain = 0
KOD1 171950Z 18004KT 12/04 A3015 RMK A01 T01160040  RH  060%=      5-min Rain = 0
KOD1 171951Z 18003KT 12/04 A3015 RMK A01 T01150040  RH  060%=      5-min Rain = 0
KOD1 171952Z 17002KT 12/04 A3015 RMK A01 T01150040  RH  060%=      5-min Rain = 0
KOD1 171953Z 18003KT 12/04 A3015 RMK A01 T01150040  RH  060%=      5-min Rain = 0
KOD1 171954Z 17001KT 11/04 A3015 RMK A01 T01140039  RH  060%=      5-min Rain = 0
KOD1 171955Z 17001KT 12/04 A3015 RMK A01 T01150041  RH  060%=      5-min Rain = 0
KOD1 171956Z 18004KT 12/04 A3015 RMK A01 T01160040  RH  059%=      5-min Rain = 0
KOD1 171957Z 18003KT 12/04 A3015 RMK A01 T01150040  RH  060%=      5-min Rain = 0
KOD1 171958Z 18003KT 12/04 A3015 RMK A01 T01150041  RH  060%=      5-min Rain = 0
KOD1 171959Z 17005KT 12/04 A3015 RMK A01 T01150042  RH  061%=      5-min Rain = 0
KOD1 172000Z 17006KT 12/04 A3015 RMK A01 T01150041  RH  060%=      5-min Rain = 0
KOD1 172001Z 15005KT 11/04 A3015 RMK A01 T01140039  RH  060%=      5-min Rain = 0
KOD1 172002Z 13002KT 11/04 A3015 RMK A01 T01130037  RH  060%=      5-min Rain = 0
KOD1 172003Z 13003KT 11/04 A3015 RMK A01 T01120038  RH  060%=      5-min Rain = 0
KOD1 172004Z 13003KT 11/04 A3014 RMK A01 T01120038  RH  060%=      5-min Rain = 0
KOD1 172005Z 13002KT 11/04 A3014 RMK A01 T01120037  RH  060%=      5-min Rain = 0
KOD1 172006Z 16004KT 11/04 A3014 RMK A01 T01140041  RH  061%=      5-min Rain = 0
KOD1 172007Z 17003KT 11/04 A3014 RMK A01 T01140037  RH  059%=      5-min Rain = 0
KOD1 172008Z 15002KT 11/04 A3014 RMK A01 T01130038  RH  060%=      5-min Rain = 0
KOD1 172009Z 14002KT 11/04 A3014 RMK A01 T01130039  RH  060%=      5-min Rain = 0
KOD1 172010Z 15001KT 11/04 A3014 RMK A01 T01140039  RH  060%=      5-min Rain = 0
KOD1 172011Z 17002KT 12/04 A3014 RMK A01 T01160040  RH  060%=      5-min Rain = 0
KOD1 172012Z 16002KT 12/04 A3014 RMK A01 T01170040  RH  059%=      5-min Rain = 0
KOD1 172013Z 16003KT 12/04 A3013 RMK A01 T01190040  RH  059%=      5-min Rain = 0
KOD1 172014Z 17002KT 12/04 A3013 RMK A01 T01190039  RH  058%=      5-min Rain = 0
KOD1 172015Z 18001KT 12/04 A3013 RMK A01 T01210040  RH  058%=      5-min Rain = 0
KOD1 172016Z 20000KT 12/04 A3013 RMK A01 T01220042  RH  058%=      5-min Rain = 0
KOD1 172017Z 17001KT 13/04 A3013 RMK A01 T01250043  RH  057%=      5-min Rain = 0
KOD1 172018Z 18000KT 13/04 A3013 RMK A01 T01270044  RH  057%=      5-min Rain = 0
KOD1 172019Z 09001KT 13/04 A3013 RMK A01 T01280041  RH  055%=      5-min Rain = 0
KOD1 172020Z 01002KT 13/04 A3013 RMK A01 T01290042  RH  056%=      5-min Rain = 0
KOD1 172021Z 33003KT 13/04 A3012 RMK A01 T01300041  RH  055%=      5-min Rain = 0
KOD1 172022Z 34003KT 13/04 A3012 RMK A01 T01280040  RH  055%=      5-min Rain = 0
KOD1 172023Z 01002KT 13/04 A3012 RMK A01 T01260041  RH  056%=      5-min Rain = 0
KOD1 172024Z 33002KT 13/04 A3012 RMK A01 T01250040  RH  056%=      5-min Rain = 0
KOD1 172025Z 31000KT 12/04 A3012 RMK A01 T01240042  RH  057%=      5-min Rain = 0
KOD1 172026Z 28002KT 13/04 A3012 RMK A01 T01250042  RH  057%=      5-min Rain = 0
KOD1 172027Z 25002KT 13/04 A3012 RMK A01 T01260040  RH  056%=      5-min Rain = 0
KOD1 172028Z 24002KT 13/04 A3012 RMK A01 T01260040  RH  056%=      5-min Rain = 0
KOD1 172029Z 22002KT 13/04 A3012 RMK A01 T01260041  RH  056%=      5-min Rain = 0
KOD1 172030Z 23002KT 13/04 A3012 RMK A01 T01260041  RH  056%=      5-min Rain = 0
KOD1 172031Z 22003KT 13/04 A3012 RMK A01 T01270044  RH  057%=      5-min Rain = 0
KOD1 172032Z 22002KT 13/04 A3012 RMK A01 T01270040  RH  055%=      5-min Rain = 0
KOD1 172033Z 20002KT 13/04 A3012 RMK A01 T01270044  RH  057%=      5-min Rain = 0
KOD1 172034Z 20002KT 13/04 A3012 RMK A01 T01270044  RH  057%=      5-min Rain = 0
KOD1 172035Z 18002KT 13/04 A3012 RMK A01 T01280043  RH  056%=      5-min Rain = 0
KOD1 172036Z 18002KT 13/04 A3012 RMK A01 T01280041  RH  056%=      5-min Rain = 0
KOD1 172037Z 15001KT 13/04 A3012 RMK A01 T01280042  RH  056%=      5-min Rain = 0
KOD1 172038Z 01003KT 13/04 A3012 RMK A01 T01290041  RH  055%=      5-min Rain = 0
KOD1 172039Z 35003KT 13/04 A3012 RMK A01 T01280040  RH  055%=      5-min Rain = 0
KOD1 172040Z 35004KT 13/04 A3012 RMK A01 T01280040  RH  055%=      5-min Rain = 0
KOD1 172041Z 00004KT 13/04 A3012 RMK A01 T01280041  RH  055%=      5-min Rain = 0
KOD1 172042Z 01004KT 13/04 A3012 RMK A01 T01270037  RH  054%=      5-min Rain = 0
KOD1 172043Z 01003KT 13/04 A3012 RMK A01 T01250037  RH  055%=      5-min Rain = 0
KOD1 172044Z 32001KT 12/04 A3012 RMK A01 T01240038  RH  056%=      5-min Rain = 0
KOD1 172045Z 30002KT 13/04 A3012 RMK A01 T01250038  RH  056%=      5-min Rain = 0
KOD1 172046Z 30002KT 13/04 A3012 RMK A01 T01260039  RH  056%=      5-min Rain = 0
KOD1 172047Z 31002KT 13/04 A3012 RMK A01 T01270038  RH  055%=      5-min Rain = 0
KOD1 172048Z 29001KT 13/04 A3012 RMK A01 T01280039  RH  055%=      5-min Rain = 0
KOD1 172049Z 28001KT 13/04 A3012 RMK A01 T01300041  RH  055%=      5-min Rain = 0
KOD1 172050Z 25001KT 13/04 A3012 RMK A01 T01320041  RH  054%=      5-min Rain = 0
KOD1 172051Z 29000KT 13/04 A3012 RMK A01 T01340041  RH  053%=      5-min Rain = 0
KOD1 172052Z 32002KT 14/04 A3012 RMK A01 T01360040  RH  052%=      5-min Rain = 0
KOD1 172053Z 32002KT 14/04 A3012 RMK A01 T01370039  RH  052%=      5-min Rain = 0
KOD1 172054Z 30002KT 14/04 A3012 RMK A01 T01360038  RH  051%=      5-min Rain = 0
KOD1 172055Z 23002KT 14/04 A3012 RMK A01 T01360040  RH  052%=      5-min Rain = 0
KOD1 172056Z 21002KT 14/04 A3012 RMK A01 T01360042  RH  053%=      5-min Rain = 0
KOD1 172057Z 20003KT 14/05 A3012 RMK A01 T01360046  RH  055%=      5-min Rain = 0
KOD1 172058Z 19003KT 14/05 A3012 RMK A01 T01360045  RH  054%=      5-min Rain = 0
KOD1 172059Z 19004KT 14/05 A3012 RMK A01 T01360046  RH  054%=      5-min Rain = 0
KOD1 172100Z 26005KT 14/04 A3012 RMK A01 T01370043  RH  053%=      5-min Rain = 0
KOD1 172101Z 31004KT 14/04 A3012 RMK A01 T01370042  RH  053%=      5-min Rain = 0
KOD1 172102Z 32003KT 14/04 A3012 RMK A01 T01370041  RH  052%=      5-min Rain = 0
KOD1 172103Z 35003KT 14/04 A3012 RMK A01 T01370041  RH  052%=      5-min Rain = 0
KOD1 172104Z 36002KT 14/04 A3012 RMK A01 T01370039  RH  052%=      5-min Rain = 0
KOD1 172105Z 01001KT 14/04 A3012 RMK A01 T01360038  RH  052%=      5-min Rain = 0
KOD1 172106Z 23002KT 14/04 A3012 RMK A01 T01350040  RH  052%=      5-min Rain = 0
KOD1 172107Z 24002KT 14/04 A3012 RMK A01 T01360041  RH  052%=      5-min Rain = 0
KOD1 172108Z 23002KT 14/04 A3012 RMK A01 T01370043  RH  053%=      5-min Rain = 0
KOD1 172109Z 20001KT 14/04 A3012 RMK A01 T01380043  RH  053%=      5-min Rain = 0
KOD1 172110Z 19001KT 14/04 A3012 RMK A01 T01380043  RH  052%=      5-min Rain = 0
KOD1 172111Z 19001KT 14/04 A3012 RMK A01 T01390044  RH  053%=      5-min Rain = 0
KOD1 172112Z 17001KT 14/04 A3012 RMK A01 T01390043  RH  052%=      5-min Rain = 0
KOD1 172113Z 15002KT 14/04 A3012 RMK A01 T01390041  RH  052%=      5-min Rain = 0
KOD1 172114Z 20002KT 14/04 A3012 RMK A01 T01380041  RH  052%=      5-min Rain = 0
KOD1 172115Z 21002KT 14/04 A3012 RMK A01 T01390042  RH  052%=      5-min Rain = 0
KOD1 172116Z 21002KT 14/04 A3012 RMK A01 T01390043  RH  052%=      5-min Rain = 0
KOD1 172117Z 19003KT 14/04 A3012 RMK A01 T01380044  RH  053%=      5-min Rain = 0
KOD1 172118Z 16003KT 14/04 A3012 RMK A01 T01380044  RH  053%=      5-min Rain = 0
KOD1 172119Z 17003KT 14/04 A3012 RMK A01 T01370041  RH  052%=      5-min Rain = 0
KOD1 172120Z 16003KT 14/04 A3012 RMK A01 T01360040  RH  052%=      5-min Rain = 0
KOD1 172121Z 16003KT 14/04 A3012 RMK A01 T01350039  RH  052%=      5-min Rain = 0
KOD1 172122Z 14003KT 13/04 A3012 RMK A01 T01340041  RH  053%=      5-min Rain = 0
KOD1 172123Z 10003KT 13/04 A3012 RMK A01 T01340039  RH  053%=      5-min Rain = 0
KOD1 172124Z 11003KT 13/04 A3012 RMK A01 T01330039  RH  053%=      5-min Rain = 0
KOD1 172125Z 11003KT 13/04 A3012 RMK A01 T01330042  RH  054%=      5-min Rain = 0
KOD1 172126Z 11004KT 13/04 A3012 RMK A01 T01320038  RH  053%=      5-min Rain = 0
KOD1 172127Z 12003KT 13/04 A3012 RMK A01 T01310039  RH  054%=      5-min Rain = 0
KOD1 172128Z 12003KT 13/04 A3012 RMK A01 T01310041  RH  054%=      5-min Rain = 0
KOD1 172129Z 12002KT 13/04 A3012 RMK A01 T01310038  RH  053%=      5-min Rain = 0
KOD1 172130Z 13001KT 13/04 A3011 RMK A01 T01310039  RH  054%=      5-min Rain = 0
KOD1 172131Z 03000KT 13/04 A3011 RMK A01 T01320041  RH  054%=      5-min Rain = 0
KOD1 172132Z 35001KT 13/04 A3011 RMK A01 T01340043  RH  054%=      5-min Rain = 0
KOD1 172133Z 13002KT 14/04 A3011 RMK A01 T01370044  RH  054%=      5-min Rain = 0
KOD1 172134Z 12002KT 14/04 A3011 RMK A01 T01390042  RH  052%=      5-min Rain = 0
KOD1 172135Z 12004KT 14/04 A3011 RMK A01 T01380039  RH  051%=      5-min Rain = 0
KOD1 172136Z 14003KT 14/04 A3011 RMK A01 T01360039  RH  052%=      5-min Rain = 0
KOD1 172137Z 14002KT 14/04 A3011 RMK A01 T01360042  RH  053%=      5-min Rain = 0
KOD1 172138Z 11002KT 14/04 A3011 RMK A01 T01370041  RH  052%=      5-min Rain = 0
KOD1 172139Z 11001KT 14/04 A3011 RMK A01 T01370040  RH  052%=      5-min Rain = 0
KOD1 172140Z 11002KT 14/04 A3011 RMK A01 T01360039  RH  052%=      5-min Rain = 0
KOD1 172141Z 15001KT 14/04 A3011 RMK A01 T01370041  RH  052%=      5-min Rain = 0
KOD1 172142Z 08001KT 14/04 A3011 RMK A01 T01380042  RH  052%=      5-min Rain = 0
KOD1 172143Z 16001KT 14/04 A3011 RMK A01 T01390044  RH  053%=      5-min Rain = 0
KOD1 172144Z 13002KT 14/04 A3011 RMK A01 T01390041  RH  052%=      5-min Rain = 0
KOD1 172145Z 10002KT 14/04 A3011 RMK A01 T01380040  RH  051%=      5-min Rain = 0
KOD1 172146Z 10003KT 14/04 A3011 RMK A01 T01370040  RH  052%=      5-min Rain = 0
KOD1 172147Z 10003KT 14/04 A3011 RMK A01 T01360040  RH  052%=      5-min Rain = 0
KOD1 172148Z 08002KT 14/04 A3011 RMK A01 T01360042  RH  053%=      5-min Rain = 0
KOD1 172149Z 11003KT 14/04 A3011 RMK A01 T01360042  RH  053%=      5-min Rain = 0
KOD1 172150Z 11005KT 14/04 A3011 RMK A01 T01360041  RH  052%=      5-min Rain = 0
KOD1 172151Z 12006KT 14/04 A3011 RMK A01 T01360041  RH  053%=      5-min Rain = 0
KOD1 172152Z 12003KT 13/04 A3011 RMK A01 T01340040  RH  053%=      5-min Rain = 0
KOD1 172153Z 12003KT 13/04 A3011 RMK A01 T01340041  RH  053%=      5-min Rain = 0
KOD1 172154Z 12003KT 14/04 A3011 RMK A01 T01350042  RH  053%=      5-min Rain = 0
KOD1 172155Z 12003KT 14/04 A3011 RMK A01 T01350041  RH  053%=      5-min Rain = 0
KOD1 172156Z 14003KT 14/04 A3011 RMK A01 T01350042  RH  053%=      5-min Rain = 0
KOD1 172157Z 13004KT 14/04 A3011 RMK A01 T01360042  RH  053%=      5-min Rain = 0
KOD1 172158Z 13003KT 14/04 A3011 RMK A01 T01360039  RH  052%=      5-min Rain = 0
KOD1 172159Z 15002KT 14/04 A3011 RMK A01 T01350039  RH  052%=      5-min Rain = 0
KOD1 172200Z 16002KT 14/04 A3011 RMK A01 T01350040  RH  053%=      5-min Rain = 0
KOD1 172201Z 13004KT 14/04 A3011 RMK A01 T01360041  RH  053%=      5-min Rain = 0
KOD1 172202Z 13003KT 14/04 A3011 RMK A01 T01350038  RH  052%=      5-min Rain = 0
KOD1 172203Z 12003KT 14/04 A3011 RMK A01 T01350041  RH  053%=      5-min Rain = 0
KOD1 172204Z 13001KT 14/04 A3011 RMK A01 T01360040  RH  052%=      5-min Rain = 0
KOD1 172205Z 12000KT 14/04 A3011 RMK A01 T01370040  RH  052%=      5-min Rain = 0
KOD1 172206Z 11002KT 14/04 A3011 RMK A01 T01380042  RH  052%=      5-min Rain = 0
KOD1 172207Z 11000KT 14/04 A3011 RMK A01 T01390041  RH  052%=      5-min Rain = 0
KOD1 172208Z 13001KT 14/04 A3011 RMK A01 T01410041  RH  051%=      5-min Rain = 0
KOD1 172209Z 11002KT 14/04 A3011 RMK A01 T01420041  RH  051%=      5-min Rain = 0
KOD1 172210Z 10004KT 14/04 A3011 RMK A01 T01420040  RH  050%=      5-min Rain = 0
KOD1 172211Z 11004KT 14/04 A3011 RMK A01 T01400039  RH  051%=      5-min Rain = 0
KOD1 172212Z 11004KT 14/04 A3011 RMK A01 T01390040  RH  051%=      5-min Rain = 0
KOD1 172213Z 11004KT 14/04 A3011 RMK A01 T01380040  RH  052%=      5-min Rain = 0
KOD1 172214Z 12004KT 14/04 A3011 RMK A01 T01370040  RH  052%=      5-min Rain = 0
KOD1 172215Z 12004KT 14/04 A3011 RMK A01 T01370040  RH  052%=      5-min Rain = 0
KOD1 172216Z 12003KT 14/04 A3011 RMK A01 T01370040  RH  052%=      5-min Rain = 0
KOD1 172217Z 13003KT 14/04 A3011 RMK A01 T01370041  RH  052%=      5-min Rain = 0
KOD1 172218Z 11003KT 14/04 A3011 RMK A01 T01370040  RH  052%=      5-min Rain = 0
KOD1 172219Z 09003KT 14/04 A3011 RMK A01 T01370040  RH  052%=      5-min Rain = 0
KOD1 172220Z 11002KT 14/04 A3011 RMK A01 T01370041  RH  052%=      5-min Rain = 0
KOD1 172221Z 11003KT 14/04 A3011 RMK A01 T01370039  RH  052%=      5-min Rain = 0
KOD1 172222Z 12004KT 14/04 A3011 RMK A01 T01360039  RH  052%=      5-min Rain = 0
KOD1 172223Z 12004KT 14/04 A3011 RMK A01 T01360039  RH  052%=      5-min Rain = 0
KOD1 172224Z 12003KT 14/04 A3011 RMK A01 T01360040  RH  052%=      5-min Rain = 0
KOD1 172225Z 11003KT 14/04 A3011 RMK A01 T01360040  RH  052%=      5-min Rain = 0
KOD1 172226Z 10003KT 14/04 A3011 RMK A01 T01360041  RH  052%=      5-min Rain = 0
KOD1 172227Z 11003KT 14/04 A3011 RMK A01 T01370041  RH  052%=      5-min Rain = 0
KOD1 172228Z 12005KT 14/04 A3011 RMK A01 T01370041  RH  052%=      5-min Rain = 0
KOD1 172229Z 13006KT 14/04 A3011 RMK A01 T01370043  RH  053%=      5-min Rain = 0
KOD1 172230Z 13005KT 14/04 A3011 RMK A01 T01370042  RH  052%=      5-min Rain = 0
KOD1 172231Z 12005KT 14/04 A3011 RMK A01 T01370041  RH  052%=      5-min Rain = 0
KOD1 172232Z 12006KT 14/04 A3011 RMK A01 T01360040  RH  052%=      5-min Rain = 0
KOD1 172233Z 12005KT 14/04 A3011 RMK A01 T01360041  RH  053%=      5-min Rain = 0
KOD1 172234Z 11006KT 14/04 A3011 RMK A01 T01350041  RH  053%=      5-min Rain = 0
KOD1 172235Z 12005KT 14/04 A3011 RMK A01 T01350042  RH  053%=      5-min Rain = 0
KOD1 172236Z 10006KT 14/04 A3011 RMK A01 T01350042  RH  053%=      5-min Rain = 0
KOD1 172237Z 12007KT 14/04 A3011 RMK A01 T01350040  RH  053%=      5-min Rain = 0
KOD1 172238Z 12005KT 13/04 A3011 RMK A01 T01340040  RH  053%=      5-min Rain = 0
KOD1 172239Z 12006KT 13/04 A3011 RMK A01 T01340040  RH  053%=      5-min Rain = 0
KOD1 172240Z 12005KT 13/04 A301 RMK A01 T01330039  RH  053%=      5-min Rain = 0
KOD1 172241Z 12004KT 13/04 A301 RMK A01 T01330040  RH  053%=      5-min Rain = 0
KOD1 172242Z 11005KT 13/04 A301 RMK A01 T01340039  RH  053%=      5-min Rain = 0
KOD1 172243Z 11005KT 13/04 A301 RMK A01 T01330039  RH  053%=      5-min Rain = 0
KOD1 172244Z 12005KT 13/04 A301 RMK A01 T01330039  RH  053%=      5-min Rain = 0
KOD1 172245Z 11005KT 13/04 A301 RMK A01 T01330040  RH  053%=      5-min Rain = 0
KOD1 172246Z 11005KT 13/04 A301 RMK A01 T01330039  RH  053%=      5-min Rain = 0
KOD1 172247Z 10005KT 13/04 A301 RMK A01 T01330039  RH  053%=      5-min Rain = 0
KOD1 172248Z 11004KT 13/04 A301 RMK A01 T01320039  RH  053%=      5-min Rain = 0
KOD1 172249Z 11003KT 13/04 A3011 RMK A01 T01330040  RH  053%=      5-min Rain = 0
KOD1 172250Z 11004KT 13/04 A3011 RMK A01 T01330041  RH  054%=      5-min Rain = 0
KOD1 172251Z 13007KT 13/04 A3011 RMK A01 T01330040  RH  053%=      5-min Rain = 0
KOD1 172252Z 13006KT 13/04 A3011 RMK A01 T01320040  RH  053%=      5-min Rain = 0
KOD1 172253Z 12005KT 13/04 A3011 RMK A01 T01320040  RH  054%=      5-min Rain = 0
KOD1 172254Z 11006KT 13/04 A3011 RMK A01 T01310041  RH  054%=      5-min Rain = 0
KOD1 172255Z 10006KT 13/04 A3011 RMK A01 T01310042  RH  055%=      5-min Rain = 0
KOD1 172256Z 11006KT 13/04 A3011 RMK A01 T01310042  RH  055%=      5-min Rain = 0
KOD1 172257Z 13006KT 13/04 A301 RMK A01 T01300043  RH  055%=      5-min Rain = 0
KOD1 172258Z 13007KT 13/04 A301 RMK A01 T01300040  RH  054%=      5-min Rain = 0
KOD1 172259Z 13007KT 13/04 A301 RMK A01 T01300040  RH  054%=      5-min Rain = 0
KOD1 172300Z 14006KT 13/04 A301 RMK A01 T01290041  RH  055%=      5-min Rain = 0
KOD1 172301Z 14007KT 13/04 A301 RMK A01 T01290043  RH  056%=      5-min Rain = 0
KOD1 172302Z 14007KT 13/04 A301 RMK A01 T01290042  RH  055%=      5-min Rain = 0
KOD1 172303Z 13007KT 13/04 A301 RMK A01 T01280042  RH  056%=      5-min Rain = 0
KOD1 172304Z 13007KT 13/04 A301 RMK A01 T01280041  RH  056%=      5-min Rain = 0
KOD1 172305Z 13006KT 13/04 A301 RMK A01 T01270041  RH  056%=      5-min Rain = 0
KOD1 172306Z 14007KT 13/04 A301 RMK A01 T01270041  RH  056%=      5-min Rain = 0
KOD1 172307Z 14007KT 13/04 A301 RMK A01 T01270041  RH  056%=      5-min Rain = 0
KOD1 172308Z 14007KT 13/04 A301 RMK A01 T01270041  RH  056%=      5-min Rain = 0
KOD1 172309Z 13007KT 13/04 A301 RMK A01 T01270041  RH  056%=      5-min Rain = 0
KOD1 172310Z 14008KT 13/04 A301 RMK A01 T01270041  RH  056%=      5-min Rain = 0
KOD1 172311Z 13006KT 13/04 A301 RMK A01 T01260042  RH  056%=      5-min Rain = 0
KOD1 172312Z 14006KT 13/04 A301 RMK A01 T01260041  RH  056%=      5-min Rain = 0
KOD1 172313Z 14007KT 13/04 A301 RMK A01 T01260042  RH  057%=      5-min Rain = 0
KOD1 172314Z 15006KT 13/04 A301 RMK A01 T01260043  RH  057%=      5-min Rain = 0
KOD1 172315Z 14006KT 13/04 A301 RMK A01 T01250044  RH  058%=      5-min Rain = 0
KOD1 172316Z 13006KT 13/04 A301 RMK A01 T01250044  RH  058%=      5-min Rain = 0
KOD1 172317Z 14005KT 13/04 A301 RMK A01 T01250041  RH  057%=      5-min Rain = 0
KOD1 172318Z 14006KT 12/04 A301 RMK A01 T01240042  RH  057%=      5-min Rain = 0
KOD1 172319Z 14005KT 12/04 A301 RMK A01 T01240043  RH  058%=      5-min Rain = 0
KOD1 172320Z 14006KT 12/04 A301 RMK A01 T01240043  RH  058%=      5-min Rain = 0
KOD1 172321Z 14007KT 12/04 A301 RMK A01 T01230043  RH  058%=      5-min Rain = 0
KOD1 172322Z 14006KT 12/04 A301 RMK A01 T01230044  RH  058%=      5-min Rain = 0
KOD1 172323Z 14005KT 12/05 A301 RMK A01 T01220045  RH  059%=      5-min Rain = 0
KOD1 172324Z 14005KT 12/05 A301 RMK A01 T01220045  RH  059%=      5-min Rain = 0
KOD1 172325Z 13005KT 12/05 A301 RMK A01 T01210045  RH  060%=      5-min Rain = 0
KOD1 172326Z 13005KT 12/05 A301 RMK A01 T01210046  RH  060%=      5-min Rain = 0
KOD1 172327Z 13005KT 12/05 A301 RMK A01 T01200046  RH  061%=      5-min Rain = 0
KOD1 172328Z 13005KT 12/05 A301 RMK A01 T01190046  RH  061%=      5-min Rain = 0
KOD1 172329Z 13005KT 12/05 A301 RMK A01 T01190047  RH  061%=      5-min Rain = 0
KOD1 172330Z 13005KT 12/05 A301 RMK A01 T01180046  RH  061%=      5-min Rain = 0
KOD1 172331Z 13005KT 12/05 A301 RMK A01 T01170046  RH  062%=      5-min Rain = 0
KOD1 172332Z 13005KT 12/05 A301 RMK A01 T01160047  RH  062%=      5-min Rain = 0
KOD1 172333Z 13005KT 12/05 A301 RMK A01 T01150047  RH  063%=      5-min Rain = 0
KOD1 172334Z 14006KT 12/05 A301 RMK A01 T01150047  RH  063%=      5-min Rain = 0
KOD1 172335Z 13005KT 11/05 A301 RMK A01 T01140047  RH  063%=      5-min Rain = 0
KOD1 172336Z 13005KT 11/05 A301 RMK A01 T01140047  RH  064%=      5-min Rain = 0
KOD1 172337Z 14006KT 11/05 A301 RMK A01 T01130048  RH  064%=      5-min Rain = 0
KOD1 172338Z 14006KT 11/05 A301 RMK A01 T01130048  RH  064%=      5-min Rain = 0
KOD1 172339Z 14007KT 11/05 A301 RMK A01 T01120048  RH  064%=      5-min Rain = 0
KOD1 172340Z 14007KT 11/05 A301 RMK A01 T01120048  RH  065%=      5-min Rain = 0
KOD1 172341Z 14006KT 11/05 A301 RMK A01 T01110048  RH  065%=      5-min Rain = 0
KOD1 172342Z 14007KT 11/05 A301 RMK A01 T01100048  RH  065%=      5-min Rain = 0
KOD1 172343Z 14008KT 11/05 A301 RMK A01 T01090048  RH  066%=      5-min Rain = 0
KOD1 172344Z 14008KT 11/05 A301 RMK A01 T01080048  RH  066%=      5-min Rain = 0
KOD1 172345Z 14007KT 11/05 A301 RMK A01 T01070048  RH  067%=      5-min Rain = 0
KOD1 172346Z 14007KT 11/05 A301 RMK A01 T01060048  RH  067%=      5-min Rain = 0
KOD1 172347Z 14006KT 11/05 A301 RMK A01 T01060048  RH  067%=      5-min Rain = 0
KOD1 172348Z 13006KT 11/05 A301 RMK A01 T01050048  RH  068%=      5-min Rain = 0
KOD1 172349Z 13006KT 10/05 A301 RMK A01 T01040048  RH  068%=      5-min Rain = 0
KOD1 172350Z 13006KT 10/05 A301 RMK A01 T01030047  RH  068%=      5-min Rain = 0
KOD1 172351Z 13007KT 10/05 A301 RMK A01 T01020047  RH  069%=      5-min Rain = 0
KOD1 172352Z 13006KT 10/05 A301 RMK A01 T01010047  RH  069%=      5-min Rain = 0
KOD1 172353Z 13005KT 10/05 A301 RMK A01 T01000046  RH  069%=      5-min Rain = 0
KOD1 172354Z 12007KT 10/05 A301 RMK A01 T00990047  RH  070%=      5-min Rain = 0
KOD1 172355Z 13005KT 10/05 A301 RMK A01 T00990046  RH  070%=      5-min Rain = 0
KOD1 172356Z 12005KT 10/05 A301 RMK A01 T00980046  RH  070%=      5-min Rain = 0
KOD1 172357Z 12005KT 10/05 A301 RMK A01 T00970045  RH  070%=      5-min Rain = 0
KOD1 172358Z 12006KT 10/05 A301 RMK A01 T00960045  RH  071%=      5-min Rain = 0
KOD1 172359Z 12006KT 10/05 A301 RMK A01 T00950045  RH  071%=      5-min Rain = 0
KOD1 180000Z 12007KT 09/05 A301 RMK A01 T00940045  RH  072%=      5-min Rain = 0
KOD1 180001Z 12007KT 09/05 A301 RMK A01 T00940046  RH  072%=      5-min Rain = 0
KOD1 180002Z 12006KT 09/05 A301 RMK A01 T00930046  RH  072%=      5-min Rain = 0
KOD1 180003Z 12006KT 09/05 A301 RMK A01 T00930046  RH  072%=      5-min Rain = 0
KOD1 180004Z 12006KT 09/05 A301 RMK A01 T00930046  RH  073%=      5-min Rain = 0
KOD1 180005Z 12006KT 09/05 A301 RMK A01 T00920046  RH  073%=      5-min Rain = 0
KOD1 180006Z 12006KT 09/05 A301 RMK A01 T00910045  RH  073%=      5-min Rain = 0
KOD1 180007Z 11006KT 09/05 A301 RMK A01 T00910045  RH  073%=      5-min Rain = 0
KOD1 180008Z 12006KT 09/05 A301 RMK A01 T00900046  RH  074%=      5-min Rain = 0
KOD1 180009Z 12006KT 09/05 A301 RMK A01 T00900046  RH  074%=      5-min Rain = 0
KOD1 180010Z 12006KT 09/05 A301 RMK A01 T00890045  RH  074%=      5-min Rain = 0
KOD1 180011Z 13006KT 09/05 A301 RMK A01 T00890045  RH  074%=      5-min Rain = 0
KOD1 180012Z 12005KT 09/05 A301 RMK A01 T00880045  RH  075%=      5-min Rain = 0
KOD1 180013Z 12005KT 09/05 A301 RMK A01 T00880045  RH  075%=      5-min Rain = 0
KOD1 180014Z 12006KT 09/05 A301 RMK A01 T00870045  RH  075%=      5-min Rain = 0
KOD1 180015Z 12006KT 09/05 A301 RMK A01 T00870045  RH  075%=      5-min Rain = 0
KOD1 180016Z 12006KT 09/05 A301 RMK A01 T00860045  RH  075%=      5-min Rain = 0
KOD1 180017Z 12006KT 09/04 A301 RMK A01 T00860044  RH  075%=      5-min Rain = 0
KOD1 180018Z 12006KT 09/04 A301 RMK A01 T00850044  RH  076%=      5-min Rain = 0
KOD1 180019Z 12005KT 09/05 A301 RMK A01 T00850045  RH  076%=      5-min Rain = 0
KOD1 180020Z 12006KT 09/05 A301 RMK A01 T00850045  RH  076%=      5-min Rain = 0
KOD1 180021Z 12005KT 08/04 A301 RMK A01 T00840044  RH  076%=      5-min Rain = 0
KOD1 180022Z 12005KT 08/04 A301 RMK A01 T00830043  RH  076%=      5-min Rain = 0
KOD1 180023Z 12005KT 08/04 A301 RMK A01 T00820044  RH  077%=      5-min Rain = 0
KOD1 180024Z 12006KT 08/04 A3011 RMK A01 T00820044  RH  077%=      5-min Rain = 0
KOD1 180025Z 12006KT 08/04 A3011 RMK A01 T00820044  RH  077%=      5-min Rain = 0
KOD1 180026Z 12006KT 08/04 A3011 RMK A01 T00820044  RH  077%=      5-min Rain = 0
KOD1 180027Z 12005KT 08/04 A3011 RMK A01 T00820044  RH  077%=      5-min Rain = 0
KOD1 180028Z 12005KT 08/04 A3011 RMK A01 T00820044  RH  077%=      5-min Rain = 0
KOD1 180029Z 13005KT 08/04 A301 RMK A01 T00810044  RH  077%=      5-min Rain = 0
KOD1 180030Z 13005KT 08/04 A301 RMK A01 T00800043  RH  077%=      5-min Rain = 0
KOD1 180031Z 13005KT 08/04 A301 RMK A01 T00800043  RH  077%=      5-min Rain = 0
KOD1 180032Z 13005KT 08/04 A301 RMK A01 T00790043  RH  078%=      5-min Rain = 0
KOD1 180033Z 13005KT 08/04 A301 RMK A01 T00790043  RH  078%=      5-min Rain = 0
KOD1 180034Z 13005KT 08/04 A301 RMK A01 T00790043  RH  078%=      5-min Rain = 0
KOD1 180035Z 13006KT 08/04 A301 RMK A01 T00780043  RH  078%=      5-min Rain = 0
KOD1 180036Z 13006KT 08/04 A301 RMK A01 T00780043  RH  079%=      5-min Rain = 0
KOD1 180037Z 13006KT 08/04 A301 RMK A01 T00780044  RH  079%=      5-min Rain = 0
KOD1 180038Z 13006KT 08/04 A301 RMK A01 T00780043  RH  079%=      5-min Rain = 0
KOD1 180039Z 13005KT 08/04 A301 RMK A01 T00780043  RH  079%=      5-min Rain = 0
KOD1 180040Z 13006KT 08/04 A301 RMK A01 T00770043  RH  079%=      5-min Rain = 0
KOD1 180041Z 13006KT 08/04 A301 RMK A01 T00770042  RH  079%=      5-min Rain = 0
KOD1 180042Z 13006KT 08/04 A301 RMK A01 T00760043  RH  079%=      5-min Rain = 0
KOD1 180043Z 13006KT 08/04 A301 RMK A01 T00760044  RH  080%=      5-min Rain = 0
KOD1 180044Z 13006KT 08/04 A301 RMK A01 T00760044  RH  080%=      5-min Rain = 0
KOD1 180045Z 13006KT 08/04 A301 RMK A01 T00760044  RH  080%=      5-min Rain = 0
KOD1 180046Z 13007KT 08/04 A301 RMK A01 T00760043  RH  080%=      5-min Rain = 0
KOD1 180047Z 13006KT 08/04 A301 RMK A01 T00760044  RH  080%=      5-min Rain = 0
KOD1 180048Z 13006KT 08/04 A301 RMK A01 T00760044  RH  080%=      5-min Rain = 0
KOD1 180049Z 13006KT 08/04 A301 RMK A01 T00760044  RH  080%=      5-min Rain = 0
KOD1 180050Z 13007KT 08/04 A301 RMK A01 T00760044  RH  080%=      5-min Rain = 0
KOD1 180051Z 13006KT 08/04 A301 RMK A01 T00760044  RH  080%=      5-min Rain = 0
KOD1 180052Z 13007KT 08/04 A301 RMK A01 T00760044  RH  080%=      5-min Rain = 0
KOD1 180053Z 14007KT 08/04 A301 RMK A01 T00760044  RH  080%=      5-min Rain = 0
KOD1 180054Z 14006KT 08/04 A301 RMK A01 T00760044  RH  080%=      5-min Rain = 0
KOD1 180055Z 14006KT 08/04 A301 RMK A01 T00750044  RH  080%=      5-min Rain = 0
KOD1 180056Z 14006KT 08/04 A301 RMK A01 T00750044  RH  080%=      5-min Rain = 0
KOD1 180057Z 14006KT 08/04 A301 RMK A01 T00750043  RH  080%=      5-min Rain = 0
KOD1 180058Z 14005KT 07/04 A301 RMK A01 T00740043  RH  081%=      5-min Rain = 0
KOD1 180059Z 14005KT 07/04 A301 RMK A01 T00730042  RH  081%=      5-min Rain = 0
KOD1 180100Z 14006KT 07/04 A301 RMK A01 T00720042  RH  081%=      5-min Rain = 0
KOD1 180101Z 14005KT 07/04 A301 RMK A01 T00710042  RH  081%=      5-min Rain = 0
KOD1 180102Z 14005KT 07/04 A301 RMK A01 T00710042  RH  082%=      5-min Rain = 0
KOD1 180103Z 14005KT 07/04 A301 RMK A01 T00710042  RH  082%=      5-min Rain = 0
KOD1 180104Z 14006KT 07/04 A301 RMK A01 T00700042  RH  082%=      5-min Rain = 0
KOD1 180105Z 13006KT 07/04 A301 RMK A01 T00700042  RH  082%=      5-min Rain = 0
KOD1 180106Z 14006KT 07/04 A301 RMK A01 T00690041  RH  082%=      5-min Rain = 0
KOD1 180107Z 13006KT 07/04 A301 RMK A01 T00690042  RH  083%=      5-min Rain = 0
KOD1 180108Z 13006KT 07/04 A301 RMK A01 T00690042  RH  083%=      5-min Rain = 0
KOD1 180109Z 13006KT 07/04 A301 RMK A01 T00690043  RH  083%=      5-min Rain = 0
KOD1 180110Z 13007KT 07/04 A301 RMK A01 T00690043  RH  083%=      5-min Rain = 0
KOD1 180111Z 13007KT 07/04 A301 RMK A01 T00690043  RH  083%=      5-min Rain = 0
KOD1 180112Z 13007KT 07/04 A301 RMK A01 T00690043  RH  083%=      5-min Rain = 0
KOD1 180113Z 13007KT 07/04 A301 RMK A01 T00690043  RH  083%=      5-min Rain = 0
KOD1 180114Z 13007KT 07/04 A301 RMK A01 T00700044  RH  084%=      5-min Rain = 0
KOD1 180115Z 13007KT 07/04 A301 RMK A01 T00700044  RH  083%=      5-min Rain = 0
KOD1 180116Z 13007KT 07/05 A301 RMK A01 T00710045  RH  083%=      5-min Rain = 0
KOD1 180117Z 13008KT 07/04 A301 RMK A01 T00710044  RH  083%=      5-min Rain = 0
KOD1 180118Z 13008KT 07/05 A301 RMK A01 T00720045  RH  083%=      5-min Rain = 0
KOD1 180119Z 14008KT 07/04 A301 RMK A01 T00720044  RH  083%=      5-min Rain = 0
KOD1 180120Z 13007KT 07/04 A301 RMK A01 T00720044  RH  083%=      5-min Rain = 0
KOD1 180121Z 14008KT 07/04 A301 RMK A01 T00720044  RH  082%=      5-min Rain = 0
KOD1 180122Z 14008KT 07/04 A301 RMK A01 T00720044  RH  082%=      5-min Rain = 0
KOD1 180123Z 14008KT 07/04 A301 RMK A01 T00720044  RH  082%=      5-min Rain = 0
KOD1 180124Z 14008KT 07/04 A301 RMK A01 T00720044  RH  082%=      5-min Rain = 0
KOD1 180125Z 13008KT 07/04 A301 RMK A01 T00720044  RH  082%=      5-min Rain = 0
KOD1 180126Z 14008KT 07/04 A301 RMK A01 T00720044  RH  082%=      5-min Rain = 0
KOD1 180127Z 13008KT 07/04 A301 RMK A01 T00720043  RH  082%=      5-min Rain = 0
KOD1 180128Z 14008KT 07/04 A301 RMK A01 T00710043  RH  082%=      5-min Rain = 0
KOD1 180129Z 13008KT 07/04 A301 RMK A01 T00710043  RH  083%=      5-min Rain = 0
KOD1 180130Z 13008KT 07/04 A301 RMK A01 T00710043  RH  083%=      5-min Rain = 0
KOD1 180131Z 14008KT 07/04 A301 RMK A01 T00710044  RH  083%=      5-min Rain = 0
KOD1 180132Z 14008KT 07/04 A301 RMK A01 T00710044  RH  083%=      5-min Rain = 0
KOD1 180133Z 13007KT 07/04 A301 RMK A01 T00710044  RH  083%=      5-min Rain = 0
KOD1 180134Z 13007KT 07/04 A301 RMK A01 T00710043  RH  083%=      5-min Rain = 0
KOD1 180135Z 14007KT 07/04 A301 RMK A01 T00700043  RH  083%=      5-min Rain = 0
KOD1 180136Z 14007KT 07/04 A301 RMK A01 T00700043  RH  083%=      5-min Rain = 0
KOD1 180137Z 14007KT 07/04 A301 RMK A01 T00700043  RH  083%=      5-min Rain = 0
KOD1 180138Z 14007KT 07/04 A301 RMK A01 T00700043  RH  083%=      5-min Rain = 0
KOD1 180139Z 14007KT 07/04 A301 RMK A01 T00700043  RH  083%=      5-min Rain = 0
KOD1 180140Z 14007KT 07/04 A301 RMK A01 T00700043  RH  083%=      5-min Rain = 0
KOD1 180141Z 14007KT 07/04 A3011 RMK A01 T00700043  RH  083%=      5-min Rain = 0
KOD1 180142Z 14007KT 07/04 A3011 RMK A01 T00690043  RH  083%=      5-min Rain = 0
KOD1 180143Z 15007KT 07/04 A3011 RMK A01 T00700043  RH  083%=      5-min Rain = 0
KOD1 180144Z 14007KT 07/04 A3011 RMK A01 T00700043  RH  083%=      5-min Rain = 0
KOD1 180145Z 14007KT 07/04 A3011 RMK A01 T00700044  RH  083%=      5-min Rain = 0
KOD1 180146Z 14006KT 07/04 A3011 RMK A01 T00700043  RH  083%=      5-min Rain = 0
KOD1 180147Z 14007KT 07/04 A3011 RMK A01 T00700043  RH  083%=      5-min Rain = 0
KOD1 180148Z 15007KT 07/04 A3011 RMK A01 T00700044  RH  084%=      5-min Rain = 0
KOD1 180149Z 14006KT 07/04 A3011 RMK A01 T00710044  RH  083%=      5-min Rain = 0
KOD1 180150Z 15008KT 07/05 A3011 RMK A01 T00720045  RH  083%=      5-min Rain = 0
KOD1 180151Z 14006KT 07/05 A3011 RMK A01 T00720045  RH  082%=      5-min Rain = 0
KOD1 180152Z 14005KT 07/04 A3011 RMK A01 T00720043  RH  082%=      5-min Rain = 0
KOD1 180153Z 14006KT 07/04 A3011 RMK A01 T00710042  RH  082%=      5-min Rain = 0
KOD1 180154Z 14006KT 07/04 A3011 RMK A01 T00700042  RH  082%=      5-min Rain = 0
KOD1 180155Z 14006KT 07/04 A3011 RMK A01 T00700043  RH  083%=      5-min Rain = 0
KOD1 180156Z 14006KT 07/04 A3011 RMK A01 T00700043  RH  083%=      5-min Rain = 0
KOD1 180157Z 14006KT 07/04 A3011 RMK A01 T00690042  RH  083%=      5-min Rain = 0
KOD1 180158Z 14006KT 07/04 A301 RMK A01 T00690043  RH  083%=      5-min Rain = 0
KOD1 180159Z 14007KT 07/04 A301 RMK A01 T00700044  RH  084%=      5-min Rain = 0
KOD1 180200Z 15007KT 07/04 A301 RMK A01 T00700044  RH  083%=      5-min Rain = 0
KOD1 180201Z 14008KT 07/05 A301 RMK A01 T00710045  RH  083%=      5-min Rain = 0
KOD1 180202Z 14008KT 07/05 A301 RMK A01 T00720045  RH  083%=      5-min Rain = 0
KOD1 180203Z 14008KT 07/05 A301 RMK A01 T00720045  RH  083%=      5-min Rain = 0
KOD1 180204Z 14009KT 07/05 A301 RMK A01 T00730045  RH  083%=      5-min Rain = 0
KOD1 180205Z 14008KT 07/05 A301 RMK A01 T00740045  RH  082%=      5-min Rain = 0
KOD1 180206Z 14008KT 07/04 A301 RMK A01 T00740044  RH  081%=      5-min Rain = 0
KOD1 180207Z 15009KT 07/05 A301 RMK A01 T00740045  RH  082%=      5-min Rain = 0
KOD1 180208Z 14007KT 08/05 A301 RMK A01 T00750045  RH  081%=      5-min Rain = 0
KOD1 180209Z 14008KT 07/04 A301 RMK A01 T00740044  RH  081%=      5-min Rain = 0
KOD1 180210Z 14008KT 07/05 A301 RMK A01 T00740045  RH  081%=      5-min Rain = 0
KOD1 180211Z 15008KT 07/04 A301 RMK A01 T00740044  RH  081%=      5-min Rain = 0
KOD1 180212Z 14008KT 07/04 A301 RMK A01 T00740044  RH  081%=      5-min Rain = 0
KOD1 180213Z 15008KT 07/05 A301 RMK A01 T00740045  RH  082%=      5-min Rain = 0
KOD1 180214Z 14008KT 07/04 A301 RMK A01 T00740044  RH  082%=      5-min Rain = 0
KOD1 180215Z 14008KT 07/05 A301 RMK A01 T00740045  RH  082%=      5-min Rain = 0
KOD1 180216Z 15009KT 07/05 A301 RMK A01 T00740045  RH  082%=      5-min Rain = 0
KOD1 180217Z 14008KT 07/05 A301 RMK A01 T00740045  RH  082%=      5-min Rain = 0
KOD1 180218Z 15007KT 07/04 A301 RMK A01 T00740044  RH  082%=      5-min Rain = 0
KOD1 180219Z 15008KT 07/05 A301 RMK A01 T00730045  RH  082%=      5-min Rain = 0
KOD1 180220Z 15008KT 07/05 A301 RMK A01 T00730045  RH  082%=      5-min Rain = 0
KOD1 180221Z 15007KT 07/05 A301 RMK A01 T00730045  RH  082%=      5-min Rain = 0
KOD1 180222Z 14007KT 07/04 A301 RMK A01 T00730044  RH  082%=      5-min Rain = 0
KOD1 180223Z 15007KT 07/04 A301 RMK A01 T00720044  RH  082%=      5-min Rain = 0
KOD1 180224Z 14007KT 07/04 A301 RMK A01 T00720044  RH  082%=      5-min Rain = 0
KOD1 180225Z 14007KT 07/04 A301 RMK A01 T00720044  RH  082%=      5-min Rain = 0
KOD1 180226Z 14007KT 07/04 A301 RMK A01 T00710043  RH  082%=      5-min Rain = 0
KOD1 180227Z 14007KT 07/04 A301 RMK A01 T00710043  RH  083%=      5-min Rain = 0
KOD1 180228Z 14007KT 07/04 A301 RMK A01 T00700043  RH  083%=      5-min Rain = 0
KOD1 180229Z 14007KT 07/04 A301 RMK A01 T00700043  RH  083%=      5-min Rain = 0
KOD1 180230Z 14007KT 07/04 A301 RMK A01 T00700044  RH  083%=      5-min Rain = 0
KOD1 180231Z 14008KT 07/04 A301 RMK A01 T00700044  RH  083%=      5-min Rain = 0
KOD1 180232Z 14007KT 07/04 A301 RMK A01 T00700044  RH  083%=      5-min Rain = 0
KOD1 180233Z 14008KT 07/04 A301 RMK A01 T00700044  RH  083%=      5-min Rain = 0
KOD1 180234Z 14008KT 07/04 A301 RMK A01 T00700044  RH  084%=      5-min Rain = 0
KOD1 180235Z 14008KT 07/05 A3009 RMK A01 T00700045  RH  084%=      5-min Rain = 0
KOD1 180236Z 14009KT 07/05 A3009 RMK A01 T00700045  RH  084%=      5-min Rain = 0
KOD1 180237Z 14009KT 07/05 A3009 RMK A01 T00700045  RH  084%=      5-min Rain = 0
KOD1 180238Z 14009KT 07/05 A3009 RMK A01 T00700045  RH  084%=      5-min Rain = 0
KOD1 180239Z 14009KT 07/04 A3009 RMK A01 T00700044  RH  084%=      5-min Rain = 0
KOD1 180240Z 14009KT 07/04 A3009 RMK A01 T00700044  RH  084%=      5-min Rain = 0
KOD1 180241Z 14009KT 07/05 A3009 RMK A01 T00700045  RH  084%=      5-min Rain = 0
KOD1 180242Z 14009KT 07/05 A3009 RMK A01 T00700045  RH  084%=      5-min Rain = 0
KOD1 180243Z 14009KT 07/05 A3009 RMK A01 T00700045  RH  084%=      5-min Rain = 0
KOD1 180244Z 15009KT 07/05 A3009 RMK A01 T00700045  RH  084%=      5-min Rain = 0
KOD1 180245Z 15010KT 07/05 A3009 RMK A01 T00700045  RH  084%=      5-min Rain = 0
KOD1 180246Z 15009KT 07/05 A3009 RMK A01 T00710046  RH  084%=      5-min Rain = 0
KOD1 180247Z 15009KT 07/05 A3009 RMK A01 T00710046  RH  084%=      5-min Rain = 0
KOD1 180248Z 15008KT 07/05 A3009 RMK A01 T00710045  RH  084%=      5-min Rain = 0
KOD1 180249Z 15008KT 07/05 A3009 RMK A01 T00710045  RH  084%=      5-min Rain = 0
KOD1 180250Z 14007KT 07/04 A3009 RMK A01 T00700044  RH  084%=      5-min Rain = 0
KOD1 180251Z 14007KT 07/04 A3009 RMK A01 T00700044  RH  084%=      5-min Rain = 0
KOD1 180252Z 13007KT 07/04 A3009 RMK A01 T00690044  RH  084%=      5-min Rain = 0
KOD1 180253Z 13007KT 07/04 A3009 RMK A01 T00690044  RH  084%=      5-min Rain = 0
KOD1 180254Z 14008KT 07/04 A3009 RMK A01 T00680044  RH  084%=      5-min Rain = 0
KOD1 180255Z 14008KT 07/04 A3008 RMK A01 T00680044  RH  084%=      5-min Rain = 0
KOD1 180256Z 14009KT 07/04 A3009 RMK A01 T00680044  RH  085%=      5-min Rain = 0
KOD1 180257Z 14010KT 07/04 A3008 RMK A01 T00680044  RH  085%=      5-min Rain = 0
KOD1 180258Z 15010KT 07/04 A3009 RMK A01 T00680044  RH  085%=      5-min Rain = 0
KOD1 180259Z 15009KT 07/04 A3008 RMK A01 T00670044  RH  085%=      5-min Rain = 0
KOD1 180300Z 15009KT 07/04 A3008 RMK A01 T00670044  RH  085%=      5-min Rain = 0
KOD1 180301Z 15009KT 07/04 A3008 RMK A01 T00670044  RH  085%=      5-min Rain = 0
KOD1 180302Z 15008KT 07/04 A3009 RMK A01 T00670044  RH  085%=      5-min Rain = 0
KOD1 180303Z 15009KT 07/04 A3009 RMK A01 T00670044  RH  085%=      5-min Rain = 0
KOD1 180304Z 15008KT 07/04 A3009 RMK A01 T00680044  RH  085%=      5-min Rain = 0
KOD1 180305Z 15007KT 07/04 A3009 RMK A01 T00670044  RH  085%=      5-min Rain = 0
KOD1 180306Z 15009KT 07/04 A3008 RMK A01 T00670044  RH  085%=      5-min Rain = 0
KOD1 180307Z 15008KT 07/04 A3009 RMK A01 T00670044  RH  085%=      5-min Rain = 0
KOD1 180308Z 14008KT 07/04 A3009 RMK A01 T00670043  RH  085%=      5-min Rain = 0
KOD1 180309Z 14007KT 07/04 A3009 RMK A01 T00670043  RH  085%=      5-min Rain = 0
KOD1 180310Z 14006KT 07/04 A3009 RMK A01 T00670043  RH  085%=      5-min Rain = 0
KOD1 180311Z 14007KT 07/04 A3009 RMK A01 T00660043  RH  085%=      5-min Rain = 0
KOD1 180312Z 14007KT 07/04 A3009 RMK A01 T00660043  RH  085%=      5-min Rain = 0
KOD1 180313Z 14006KT 07/04 A3009 RMK A01 T00650042  RH  085%=      5-min Rain = 0
KOD1 180314Z 14007KT 07/04 A3009 RMK A01 T00650042  RH  085%=      5-min Rain = 0
KOD1 180315Z 14008KT 07/04 A3009 RMK A01 T00650043  RH  086%=      5-min Rain = 0
KOD1 180316Z 14009KT 07/04 A3009 RMK A01 T00650043  RH  086%=      5-min Rain = 0
KOD1 180317Z 14009KT 07/04 A3009 RMK A01 T00650043  RH  086%=      5-min Rain = 0
KOD1 180318Z 14008KT 07/04 A3009 RMK A01 T00650043  RH  086%=      5-min Rain = 0
KOD1 180319Z 14007KT 07/04 A3008 RMK A01 T00650043  RH  086%=      5-min Rain = 0
KOD1 180320Z 14008KT 06/04 A3008 RMK A01 T00640043  RH  086%=      5-min Rain = 0
KOD1 180321Z 14008KT 06/04 A3008 RMK A01 T00640042  RH  086%=      5-min Rain = 0
KOD1 180322Z 14007KT 06/04 A3008 RMK A01 T00640043  RH  086%=      5-min Rain = 0
KOD1 180323Z 14008KT 06/04 A3008 RMK A01 T00640043  RH  086%=      5-min Rain = 0
KOD1 180324Z 14008KT 06/04 A3008 RMK A01 T00630043  RH  086%=      5-min Rain = 0
KOD1 180325Z 15008KT 06/04 A3008 RMK A01 T00630043  RH  087%=      5-min Rain = 0
KOD1 180326Z 14009KT 06/04 A3008 RMK A01 T00630043  RH  087%=      5-min Rain = 0
KOD1 180327Z 14007KT 06/04 A3008 RMK A01 T00640043  RH  087%=      5-min Rain = 0
KOD1 180328Z 14007KT 06/04 A3008 RMK A01 T00640043  RH  087%=      5-min Rain = 0
KOD1 180329Z 14007KT 06/04 A3008 RMK A01 T00640043  RH  087%=      5-min Rain = 0
KOD1 180330Z 14007KT 06/04 A3008 RMK A01 T00630043  RH  087%=      5-min Rain = 0
KOD1 180331Z 14007KT 06/04 A3008 RMK A01 T00630042  RH  086%=      5-min Rain = 0
KOD1 180332Z 14008KT 06/04 A3008 RMK A01 T00630042  RH  087%=      5-min Rain = 0
KOD1 180333Z 14008KT 06/04 A3008 RMK A01 T00630043  RH  087%=      5-min Rain = 0
KOD1 180334Z 14008KT 06/04 A3008 RMK A01 T00640043  RH  087%=      5-min Rain = 0
KOD1 180335Z 14008KT 06/04 A3007 RMK A01 T00640043  RH  087%=      5-min Rain = 0
KOD1 180336Z 14008KT 06/04 A3007 RMK A01 T00640043  RH  087%=      5-min Rain = 0
KOD1 180337Z 14008KT 06/04 A3007 RMK A01 T00640043  RH  087%=      5-min Rain = 0
KOD1 180338Z 14008KT 06/04 A3007 RMK A01 T00640043  RH  087%=      5-min Rain = 0
KOD1 180339Z 15009KT 06/04 A3007 RMK A01 T00640043  RH  087%=      5-min Rain = 0
KOD1 180340Z 14008KT 06/04 A3007 RMK A01 T00640043  RH  087%=      5-min Rain = 0
KOD1 180341Z 14008KT 06/04 A3007 RMK A01 T00640043  RH  087%=      5-min Rain = 0
KOD1 180342Z 14008KT 06/04 A3007 RMK A01 T00630042  RH  087%=      5-min Rain = 0
KOD1 180343Z 14008KT 06/04 A3007 RMK A01 T00630043  RH  087%=      5-min Rain = 0
KOD1 180344Z 14008KT 06/04 A3007 RMK A01 T00630042  RH  087%=      5-min Rain = 0
KOD1 180345Z 14008KT 06/04 A3007 RMK A01 T00630042  RH  087%=      5-min Rain = 0
KOD1 180346Z 14008KT 06/04 A3007 RMK A01 T00620042  RH  087%=      5-min Rain = 0
KOD1 180347Z 14008KT 06/04 A3007 RMK A01 T00630043  RH  087%=      5-min Rain = 0
KOD1 180348Z 14008KT 06/04 A3007 RMK A01 T00630043  RH  087%=      5-min Rain = 0
KOD1 180349Z 14008KT 06/04 A3007 RMK A01 T00630042  RH  087%=      5-min Rain = 0
KOD1 180350Z 14008KT 06/04 A3007 RMK A01 T00630042  RH  087%=      5-min Rain = 0
KOD1 180351Z 14007KT 06/04 A3007 RMK A01 T00620042  RH  087%=      5-min Rain = 0
KOD1 180352Z 14008KT 06/04 A3007 RMK A01 T00620042  RH  087%=      5-min Rain = 0
KOD1 180353Z 14008KT 06/04 A3007 RMK A01 T00620042  RH  087%=      5-min Rain = 0
KOD1 180354Z 14008KT 06/04 A3007 RMK A01 T00620042  RH  087%=      5-min Rain = 0
KOD1 180355Z 14008KT 06/04 A3007 RMK A01 T00630042  RH  087%=      5-min Rain = 0
KOD1 180356Z 14008KT 06/04 A3007 RMK A01 T00620042  RH  087%=      5-min Rain = 0
KOD1 180357Z 14008KT 06/04 A3007 RMK A01 T00620042  RH  087%=      5-min Rain = 0
KOD1 180358Z 14008KT 06/04 A3007 RMK A01 T00630042  RH  087%=      5-min Rain = 0
KOD1 180359Z 14008KT 06/04 A3007 RMK A01 T00620042  RH  087%=      5-min Rain = 0
KOD1 180400Z 14008KT 06/04 A3007 RMK A01 T00620042  RH  087%=      5-min Rain = 0
KOD1 180401Z 14008KT 06/04 A3007 RMK A01 T00620042  RH  087%=      5-min Rain = 0
KOD1 180402Z 14008KT 06/04 A3007 RMK A01 T00620042  RH  087%=      5-min Rain = 0
KOD1 180403Z 14009KT 06/04 A3007 RMK A01 T00620042  RH  087%=      5-min Rain = 0
KOD1 180404Z 14010KT 06/04 A3007 RMK A01 T00620043  RH  087%=      5-min Rain = 0
KOD1 180405Z 14010KT 06/04 A3007 RMK A01 T00630043  RH  087%=      5-min Rain = 0
KOD1 180406Z 14009KT 06/04 A3007 RMK A01 T00630042  RH  087%=      5-min Rain = 0
KOD1 180407Z 13010KT 06/04 A3006 RMK A01 T00630042  RH  087%=      5-min Rain = 0
KOD1 180408Z 14010KT 06/04 A3006 RMK A01 T00630042  RH  086%=      5-min Rain = 0
KOD1 180409Z 14010KT 06/04 A3006 RMK A01 T00630042  RH  086%=      5-min Rain = 0
KOD1 180410Z 14010KT 06/04 A3006 RMK A01 T00630042  RH  086%=      5-min Rain = 0
KOD1 180411Z 14010KT 06/04 A3006 RMK A01 T00630041  RH  086%=      5-min Rain = 0
KOD1 180412Z 14011KT 06/04 A3006 RMK A01 T00630042  RH  086%=      5-min Rain = 0
KOD1 180413Z 14011KT 06/04 A3006 RMK A01 T00630042  RH  086%=      5-min Rain = 0
KOD1 180414Z 13010KT 06/04 A3006 RMK A01 T00630041  RH  086%=      5-min Rain = 0
KOD1 180415Z 14010KT 06/04 A3006 RMK A01 T00620041  RH  086%=      5-min Rain = 0
KOD1 180416Z 13010KT 06/04 A3006 RMK A01 T00620041  RH  086%=      5-min Rain = 0
KOD1 180417Z 14010KT 06/04 A3006 RMK A01 T00610041  RH  086%=      5-min Rain = 0
KOD1 180418Z 14010KT 06/04 A3006 RMK A01 T00610041  RH  087%=      5-min Rain = 0
KOD1 180419Z 14011KT 06/04 A3006 RMK A01 T00610041  RH  087%=      5-min Rain = 0
KOD1 180420Z 14010KT 06/04 A3006 RMK A01 T00610041  RH  087%=      5-min Rain = 0
KOD1 180421Z 14011KT 06/04 A3006 RMK A01 T00600041  RH  087%=      5-min Rain = 0
KOD1 180422Z 14010KT 06/04 A3006 RMK A01 T00600041  RH  087%=      5-min Rain = 0
KOD1 180423Z 14011KT 06/04 A3006 RMK A01 T00600041  RH  087%=      5-min Rain = 0
KOD1 180424Z 14011KT 06/04 A3006 RMK A01 T00600041  RH  088%=      5-min Rain = 0
KOD1 180425Z 14011KT 06/04 A3006 RMK A01 T00600041  RH  088%=      5-min Rain = 0
KOD1 180426Z 13011KT 06/04 A3006 RMK A01 T00600041  RH  088%=      5-min Rain = 0
KOD1 180427Z 14011KT 06/04 A3006 RMK A01 T00600041  RH  088%=      5-min Rain = 0
KOD1 180428Z 14011KT 06/04 A3006 RMK A01 T00600041  RH  088%=      5-min Rain = 0
KOD1 180429Z 14011KT 06/04 A3006 RMK A01 T00600041  RH  088%=      5-min Rain = 0
KOD1 180430Z 14011KT 06/04 A3006 RMK A01 T00600041  RH  088%=      5-min Rain = 0
KOD1 180431Z 14011KT 06/04 A3006 RMK A01 T00600041  RH  088%=      5-min Rain = 0
KOD1 180432Z 13010KT 06/04 A3006 RMK A01 T00600041  RH  087%=      5-min Rain = 0
KOD1 180433Z 14011KT 06/04 A3006 RMK A01 T00600041  RH  088%=      5-min Rain = 0
KOD1 180434Z 14012KT 06/04 A3005 RMK A01 T00600041  RH  088%=      5-min Rain = 0
KOD1 180435Z 14012KT 06/04 A3005 RMK A01 T00610042  RH  088%=      5-min Rain = 0
KOD1 180436Z 14011KT 06/04 A3005 RMK A01 T00610041  RH  087%=      5-min Rain = 0
KOD1 180437Z 14012KT 06/04 A3005 RMK A01 T00610041  RH  087%=      5-min Rain = 0
KOD1 180438Z 14011KT 06/04 A3005 RMK A01 T00610041  RH  087%=      5-min Rain = 0
KOD1 180439Z 14011KT 06/04 A3005 RMK A01 T00600041  RH  087%=      5-min Rain = 0
KOD1 180440Z 14011KT 06/04 A3005 RMK A01 T00600041  RH  088%=      5-min Rain = 0
KOD1 180441Z 14012KT 06/04 A3005 RMK A01 T00600042  RH  088%=      5-min Rain = 0
KOD1 180442Z 14012KT 06/04 A3005 RMK A01 T00610042  RH  088%=      5-min Rain = 0
KOD1 180443Z 14011KT 06/04 A3005 RMK A01 T00610042  RH  088%=      5-min Rain = 0
KOD1 180444Z 14011KT 06/04 A3005 RMK A01 T00610041  RH  087%=      5-min Rain = 0
KOD1 180445Z 14011KT 06/04 A3005 RMK A01 T00600041  RH  088%=      5-min Rain = 0
KOD1 180446Z 14010KT 06/04 A3005 RMK A01 T00600041  RH  088%=      5-min Rain = 0
KOD1 180447Z 14010KT 06/04 A3005 RMK A01 T00590041  RH  088%=      5-min Rain = 0
KOD1 180448Z 14010KT 06/04 A3005 RMK A01 T00590040  RH  088%=      5-min Rain = 0
KOD1 180449Z 14010KT 06/04 A3005 RMK A01 T00590040  RH  088%=      5-min Rain = 0
KOD1 180450Z 14010KT 06/04 A3005 RMK A01 T00580041  RH  088%=      5-min Rain = 0
KOD1 180451Z 14010KT 06/04 A3005 RMK A01 T00580040  RH  088%=      5-min Rain = 0
KOD1 180452Z 14012KT 06/04 A3005 RMK A01 T00580041  RH  089%=      5-min Rain = 0
KOD1 180453Z 14012KT 06/04 A3005 RMK A01 T00580041  RH  089%=      5-min Rain = 0
KOD1 180454Z 14011KT 06/04 A3005 RMK A01 T00580040  RH  088%=      5-min Rain = 0
KOD1 180455Z 14011KT 06/04 A3005 RMK A01 T00580040  RH  088%=      5-min Rain = 0
KOD1 180456Z 14011KT 06/04 A3005 RMK A01 T00580041  RH  088%=      5-min Rain = 0
KOD1 180457Z 14011KT 06/04 A3005 RMK A01 T00580040  RH  088%=      5-min Rain = 0
KOD1 180458Z 14011KT 06/04 A3005 RMK A01 T00580040  RH  088%=      5-min Rain = 0
KOD1 180459Z 13012KT 06/04 A3005 RMK A01 T00580040  RH  089%=      5-min Rain = 0
KOD1 180500Z 13012KT 06/04 A3005 RMK A01 T00580040  RH  088%=      5-min Rain = 0
KOD1 180501Z 13012KT 06/04 A3004 RMK A01 T00580040  RH  088%=      5-min Rain = 0
KOD1 180502Z 13010KT 06/04 A3004 RMK A01 T00580040  RH  088%=      5-min Rain = 0
KOD1 180503Z 13010KT 06/04 A3004 RMK A01 T00580040  RH  088%=      5-min Rain = 0
KOD1 180504Z 13010KT 06/04 A3004 RMK A01 T00570040  RH  088%=      5-min Rain = 0
KOD1 180505Z 13011KT 06/04 A3004 RMK A01 T00570039  RH  088%=      5-min Rain = 0
KOD1 180506Z 13010KT 06/04 A3004 RMK A01 T00570039  RH  088%=      5-min Rain = 0
KOD1 180507Z 13011KT 06/04 A3004 RMK A01 T00570039  RH  089%=      5-min Rain = 0
KOD1 180508Z 13011KT 06/04 A3004 RMK A01 T00570039  RH  089%=      5-min Rain = 0
KOD1 180509Z 13012KT 06/04 A3004 RMK A01 T00570039  RH  089%=      5-min Rain = 0
KOD1 180510Z 13012KT 06/04 A3004 RMK A01 T00570039  RH  088%=      5-min Rain = 0
KOD1 180511Z 13012KT 06/04 A3004 RMK A01 T00570039  RH  088%=      5-min Rain = 0
KOD1 180512Z 13011KT 06/04 A3004 RMK A01 T00560039  RH  088%=      5-min Rain = 0
KOD1 180513Z 13011KT 06/04 A3004 RMK A01 T00560039  RH  089%=      5-min Rain = 0
KOD1 180514Z 13011KT 06/04 A3004 RMK A01 T00560039  RH  089%=      5-min Rain = 0
KOD1 180515Z 13013KT 06/04 A3004 RMK A01 T00560039  RH  089%=      5-min Rain = 0
KOD1 180516Z 13012KT 06/04 A3003 RMK A01 T00560039  RH  089%=      5-min Rain = 0
KOD1 180517Z 13012KT 06/04 A3003 RMK A01 T00560039  RH  089%=      5-min Rain = 0
KOD1 180518Z 13013KT 06/04 A3003 RMK A01 T00560039  RH  089%=      5-min Rain = 0
KOD1 180519Z 13012KT 06/04 A3004 RMK A01 T00550039  RH  089%=      5-min Rain = 0
KOD1 180520Z 13012KT 06/04 A3004 RMK A01 T00550038  RH  089%=      5-min Rain = 0
KOD1 180521Z 13012KT 06/04 A3004 RMK A01 T00550039  RH  089%=      5-min Rain = 0
KOD1 180522Z 13012KT 06/04 A3004 RMK A01 T00550039  RH  089%=      5-min Rain = 0
KOD1 180523Z 13011KT 06/04 A3004 RMK A01 T00560039  RH  089%=      5-min Rain = 0
KOD1 180524Z 13011KT 06/04 A3004 RMK A01 T00560039  RH  089%=      5-min Rain = 0
KOD1 180525Z 13010KT 06/04 A3004 RMK A01 T00560039  RH  089%=      5-min Rain = 0
KOD1 180526Z 13010KT 06/04 A3004 RMK A01 T00560039  RH  089%=      5-min Rain = 0
KOD1 180527Z 13010KT 06/04 A3004 RMK A01 T00560039  RH  089%=      5-min Rain = 0
KOD1 180528Z 13010KT 06/04 A3005 RMK A01 T00560039  RH  089%=      5-min Rain = 0
KOD1 180529Z 13008KT 06/04 A3005 RMK A01 T00560038  RH  089%=      5-min Rain = 0
KOD1 180530Z 13009KT 06/04 A3005 RMK A01 T00560039  RH  089%=      5-min Rain = 0
KOD1 180531Z 14009KT 06/04 A3005 RMK A01 T00560039  RH  089%=      5-min Rain = 0
KOD1 180532Z 13009KT 06/04 A3005 RMK A01 T00560039  RH  089%=      5-min Rain = 0
KOD1 180533Z 14009KT 06/04 A3005 RMK A01 T00550038  RH  089%=      5-min Rain = 0
KOD1 180534Z 14009KT 06/04 A3005 RMK A01 T00550038  RH  089%=      5-min Rain = 0
KOD1 180535Z 14010KT 06/04 A3005 RMK A01 T00550038  RH  089%=      5-min Rain = 0
KOD1 180536Z 14009KT 06/04 A3005 RMK A01 T00550038  RH  089%=      5-min Rain = 0
KOD1 180537Z 14009KT 05/04 A3005 RMK A01 T00540038  RH  089%=      5-min Rain = 0
KOD1 180538Z 14010KT 05/04 A3005 RMK A01 T00540038  RH  089%=      5-min Rain = 0
KOD1 180539Z 14009KT 05/04 A3005 RMK A01 T00540038  RH  089%=      5-min Rain = 0
KOD1 180540Z 15008KT 05/04 A3005 RMK A01 T00530037  RH  089%=      5-min Rain = 0
KOD1 180541Z 15008KT 05/04 A3005 RMK A01 T00530037  RH  089%=      5-min Rain = 0
KOD1 180542Z 14008KT 05/04 A3005 RMK A01 T00520036  RH  089%=      5-min Rain = 0
KOD1 180543Z 14008KT 05/04 A3005 RMK A01 T00520036  RH  090%=      5-min Rain = 0
KOD1 180544Z 15008KT 05/04 A3005 RMK A01 T00510036  RH  090%=      5-min Rain = 0
KOD1 180545Z 14008KT 05/04 A3005 RMK A01 T00510035  RH  090%=      5-min Rain = 0
KOD1 180546Z 14008KT 05/04 A3004 RMK A01 T00500035  RH  090%=      5-min Rain = 0
KOD1 180547Z 14008KT 05/04 A3004 RMK A01 T00500036  RH  090%=      5-min Rain = 0
KOD1 180548Z 14009KT 05/04 A3004 RMK A01 T00500036  RH  091%=      5-min Rain = 0
KOD1 180549Z 14010KT 05/04 A3004 RMK A01 T00500036  RH  091%=      5-min Rain = 0
KOD1 180550Z 14009KT 05/04 A3004 RMK A01 T00500037  RH  091%=      5-min Rain = 0
KOD1 180551Z 14008KT 05/04 A3004 RMK A01 T00510037  RH  091%=      5-min Rain = 0
KOD1 180552Z 14010KT 05/04 A3004 RMK A01 T00510037  RH  091%=      5-min Rain = 0
KOD1 180553Z 14010KT 05/04 A3004 RMK A01 T00510037  RH  091%=      5-min Rain = 0
KOD1 180554Z 14010KT 05/04 A3004 RMK A01 T00510037  RH  091%=      5-min Rain = 0
KOD1 180555Z 14010KT 05/04 A3004 RMK A01 T00510037  RH  091%=      5-min Rain = 0
KOD1 180556Z 14010KT 05/04 A3004 RMK A01 T00510037  RH  091%=      5-min Rain = 0
KOD1 180557Z 14010KT 05/04 A3004 RMK A01 T00510037  RH  091%=      5-min Rain = 0
KOD1 180558Z 14010KT 05/04 A3004 RMK A01 T00510036  RH  091%=      5-min Rain = 0
KOD1 180559Z 14009KT 05/04 A3004 RMK A01 T00500036  RH  091%=      5-min Rain = 0

Page generated in 0.1526 seconds.